<?xml version="1.0" encoding="UTF-8" standalone="no" ?>
<gpx xmlns="http://www.topografix.com/GPX/1/1" xmlns:xsi="http://www.w3.org/2001/XMLSchema-instance" xsi:schemaLocation="http://www.topografix.com/GPX/1/1 http://www.topografix.com/GPX/1/1/gpx.xsd" version="1.1" creator="VisuGPX - https://www.visugpx.com">
  <metadata>
    <name>RECO ROQUEBRUNE ERMITE MIMOSAS</name>
    <desc><![CDATA[ reconnaissance randonnée sur le GR51 au rocher de Roquebrune à travers les mimosas vers le refuge de l'ermite.]]></desc>
  </metadata>
  <trk>
    <name><![CDATA[Tracé actuel: 04 FEV 2016 09:21]]></name>
    <trkseg>
      <trkpt lat="43.4437" lon="6.61872">
        <ele>-94.07</ele>
        <time>2016-02-04T08:21:51Z</time>
      </trkpt>
      <trkpt lat="43.44368" lon="6.61869">
        <ele>-93.11</ele>
        <time>2016-02-04T08:21:53Z</time>
      </trkpt>
      <trkpt lat="43.44367" lon="6.61855">
        <ele>-93.59</ele>
        <time>2016-02-04T08:22:06Z</time>
      </trkpt>
      <trkpt lat="43.44368" lon="6.61844">
        <ele>-89.27</ele>
        <time>2016-02-04T08:22:16Z</time>
      </trkpt>
      <trkpt lat="43.44368" lon="6.61843">
        <ele>-85.42</ele>
        <time>2016-02-04T08:22:17Z</time>
      </trkpt>
      <trkpt lat="43.44368" lon="6.61843">
        <ele>-85.9</ele>
        <time>2016-02-04T08:22:18Z</time>
      </trkpt>
      <trkpt lat="43.44368" lon="6.6184">
        <ele>-82.54</ele>
        <time>2016-02-04T08:22:20Z</time>
      </trkpt>
      <trkpt lat="43.44368" lon="6.61839">
        <ele>-77.73</ele>
        <time>2016-02-04T08:22:21Z</time>
      </trkpt>
      <trkpt lat="43.44368" lon="6.61837">
        <ele>-71.48</ele>
        <time>2016-02-04T08:22:23Z</time>
      </trkpt>
      <trkpt lat="43.44369" lon="6.61834">
        <ele>-63.79</ele>
        <time>2016-02-04T08:22:25Z</time>
      </trkpt>
      <trkpt lat="43.44369" lon="6.61832">
        <ele>-58.98</ele>
        <time>2016-02-04T08:22:27Z</time>
      </trkpt>
      <trkpt lat="43.44369" lon="6.61827">
        <ele>-51.77</ele>
        <time>2016-02-04T08:22:30Z</time>
      </trkpt>
      <trkpt lat="43.44368" lon="6.61824">
        <ele>-46.97</ele>
        <time>2016-02-04T08:22:32Z</time>
      </trkpt>
      <trkpt lat="43.44368" lon="6.61821">
        <ele>-41.68</ele>
        <time>2016-02-04T08:22:34Z</time>
      </trkpt>
      <trkpt lat="43.44368" lon="6.61818">
        <ele>-38.32</ele>
        <time>2016-02-04T08:22:36Z</time>
      </trkpt>
      <trkpt lat="43.44367" lon="6.61814">
        <ele>-34.47</ele>
        <time>2016-02-04T08:22:38Z</time>
      </trkpt>
      <trkpt lat="43.44368" lon="6.61813">
        <ele>-34.95</ele>
        <time>2016-02-04T08:22:39Z</time>
      </trkpt>
      <trkpt lat="43.44368" lon="6.61811">
        <ele>-29.66</ele>
        <time>2016-02-04T08:22:40Z</time>
      </trkpt>
      <trkpt lat="43.44367" lon="6.61802">
        <ele>-26.78</ele>
        <time>2016-02-04T08:22:45Z</time>
      </trkpt>
      <trkpt lat="43.44366" lon="6.61798">
        <ele>-23.41</ele>
        <time>2016-02-04T08:22:47Z</time>
      </trkpt>
      <trkpt lat="43.44366" lon="6.61791">
        <ele>-19.57</ele>
        <time>2016-02-04T08:22:50Z</time>
      </trkpt>
      <trkpt lat="43.44369" lon="6.61786">
        <ele>-15.72</ele>
        <time>2016-02-04T08:22:53Z</time>
      </trkpt>
      <trkpt lat="43.44373" lon="6.61772">
        <ele>-12.36</ele>
        <time>2016-02-04T08:23:00Z</time>
      </trkpt>
      <trkpt lat="43.44373" lon="6.61769">
        <ele>-9.96</ele>
        <time>2016-02-04T08:23:02Z</time>
      </trkpt>
      <trkpt lat="43.44371" lon="6.61762">
        <ele>-6.11</ele>
        <time>2016-02-04T08:23:06Z</time>
      </trkpt>
      <trkpt lat="43.4437" lon="6.61756">
        <ele>-3.23</ele>
        <time>2016-02-04T08:23:09Z</time>
      </trkpt>
      <trkpt lat="43.44368" lon="6.61748">
        <ele>1.58</ele>
        <time>2016-02-04T08:23:14Z</time>
      </trkpt>
      <trkpt lat="43.44367" lon="6.61744">
        <ele>1.1</ele>
        <time>2016-02-04T08:23:16Z</time>
      </trkpt>
      <trkpt lat="43.44365" lon="6.6174">
        <ele>3.02</ele>
        <time>2016-02-04T08:23:18Z</time>
      </trkpt>
      <trkpt lat="43.44363" lon="6.61733">
        <ele>5.42</ele>
        <time>2016-02-04T08:23:21Z</time>
      </trkpt>
      <trkpt lat="43.44359" lon="6.61725">
        <ele>9.27</ele>
        <time>2016-02-04T08:23:27Z</time>
      </trkpt>
      <trkpt lat="43.44357" lon="6.61716">
        <ele>12.63</ele>
        <time>2016-02-04T08:23:35Z</time>
      </trkpt>
      <trkpt lat="43.44356" lon="6.61714">
        <ele>13.12</ele>
        <time>2016-02-04T08:23:36Z</time>
      </trkpt>
      <trkpt lat="43.44354" lon="6.61707">
        <ele>14.08</ele>
        <time>2016-02-04T08:23:40Z</time>
      </trkpt>
      <trkpt lat="43.44354" lon="6.61688">
        <ele>17.92</ele>
        <time>2016-02-04T08:23:53Z</time>
      </trkpt>
      <trkpt lat="43.44354" lon="6.61678">
        <ele>19.84</ele>
        <time>2016-02-04T08:24:07Z</time>
      </trkpt>
      <trkpt lat="43.44356" lon="6.61664">
        <ele>21.77</ele>
        <time>2016-02-04T08:24:18Z</time>
      </trkpt>
      <trkpt lat="43.44353" lon="6.61651">
        <ele>23.21</ele>
        <time>2016-02-04T08:24:31Z</time>
      </trkpt>
      <trkpt lat="43.44349" lon="6.61644">
        <ele>24.65</ele>
        <time>2016-02-04T08:24:38Z</time>
      </trkpt>
      <trkpt lat="43.4435" lon="6.61631">
        <ele>26.09</ele>
        <time>2016-02-04T08:24:52Z</time>
      </trkpt>
      <trkpt lat="43.44353" lon="6.61624">
        <ele>27.53</ele>
        <time>2016-02-04T08:25:04Z</time>
      </trkpt>
      <trkpt lat="43.44355" lon="6.6162">
        <ele>28.02</ele>
        <time>2016-02-04T08:25:08Z</time>
      </trkpt>
      <trkpt lat="43.44361" lon="6.61617">
        <ele>29.46</ele>
        <time>2016-02-04T08:25:14Z</time>
      </trkpt>
      <trkpt lat="43.44364" lon="6.61616">
        <ele>29.46</ele>
        <time>2016-02-04T08:25:17Z</time>
      </trkpt>
      <trkpt lat="43.44369" lon="6.61615">
        <ele>29.94</ele>
        <time>2016-02-04T08:25:20Z</time>
      </trkpt>
      <trkpt lat="43.44379" lon="6.61597">
        <ele>31.38</ele>
        <time>2016-02-04T08:25:32Z</time>
      </trkpt>
      <trkpt lat="43.44381" lon="6.61582">
        <ele>32.82</ele>
        <time>2016-02-04T08:25:45Z</time>
      </trkpt>
      <trkpt lat="43.44382" lon="6.61573">
        <ele>35.23</ele>
        <time>2016-02-04T08:25:59Z</time>
      </trkpt>
      <trkpt lat="43.44382" lon="6.61571">
        <ele>35.71</ele>
        <time>2016-02-04T08:26:13Z</time>
      </trkpt>
      <trkpt lat="43.44381" lon="6.61566">
        <ele>35.71</ele>
        <time>2016-02-04T08:26:26Z</time>
      </trkpt>
      <trkpt lat="43.44382" lon="6.61557">
        <ele>35.23</ele>
        <time>2016-02-04T08:26:32Z</time>
      </trkpt>
      <trkpt lat="43.44383" lon="6.61547">
        <ele>36.19</ele>
        <time>2016-02-04T08:26:40Z</time>
      </trkpt>
      <trkpt lat="43.44386" lon="6.6153">
        <ele>38.59</ele>
        <time>2016-02-04T08:26:55Z</time>
      </trkpt>
      <trkpt lat="43.44386" lon="6.61523">
        <ele>38.59</ele>
        <time>2016-02-04T08:27:01Z</time>
      </trkpt>
      <trkpt lat="43.44391" lon="6.61516">
        <ele>39.55</ele>
        <time>2016-02-04T08:27:09Z</time>
      </trkpt>
      <trkpt lat="43.44393" lon="6.61514">
        <ele>40.03</ele>
        <time>2016-02-04T08:27:11Z</time>
      </trkpt>
      <trkpt lat="43.44399" lon="6.61505">
        <ele>40.99</ele>
        <time>2016-02-04T08:27:20Z</time>
      </trkpt>
      <trkpt lat="43.44411" lon="6.61495">
        <ele>43.4</ele>
        <time>2016-02-04T08:27:35Z</time>
      </trkpt>
      <trkpt lat="43.44421" lon="6.61482">
        <ele>44.36</ele>
        <time>2016-02-04T08:27:48Z</time>
      </trkpt>
      <trkpt lat="43.44424" lon="6.61478">
        <ele>44.36</ele>
        <time>2016-02-04T08:27:52Z</time>
      </trkpt>
      <trkpt lat="43.44434" lon="6.61461">
        <ele>46.28</ele>
        <time>2016-02-04T08:28:09Z</time>
      </trkpt>
      <trkpt lat="43.44441" lon="6.61446">
        <ele>47.72</ele>
        <time>2016-02-04T08:28:22Z</time>
      </trkpt>
      <trkpt lat="43.44439" lon="6.61438">
        <ele>48.68</ele>
        <time>2016-02-04T08:28:29Z</time>
      </trkpt>
      <trkpt lat="43.44438" lon="6.61428">
        <ele>50.13</ele>
        <time>2016-02-04T08:28:37Z</time>
      </trkpt>
      <trkpt lat="43.44432" lon="6.6142">
        <ele>52.05</ele>
        <time>2016-02-04T08:28:46Z</time>
      </trkpt>
      <trkpt lat="43.44429" lon="6.61417">
        <ele>52.05</ele>
        <time>2016-02-04T08:28:49Z</time>
      </trkpt>
      <trkpt lat="43.44427" lon="6.61416">
        <ele>52.05</ele>
        <time>2016-02-04T08:28:51Z</time>
      </trkpt>
      <trkpt lat="43.44421" lon="6.6141">
        <ele>52.05</ele>
        <time>2016-02-04T08:28:58Z</time>
      </trkpt>
      <trkpt lat="43.44405" lon="6.61405">
        <ele>53.01</ele>
        <time>2016-02-04T08:29:11Z</time>
      </trkpt>
      <trkpt lat="43.44391" lon="6.61401">
        <ele>53.97</ele>
        <time>2016-02-04T08:29:23Z</time>
      </trkpt>
      <trkpt lat="43.44385" lon="6.61399">
        <ele>53.97</ele>
        <time>2016-02-04T08:29:28Z</time>
      </trkpt>
      <trkpt lat="43.44371" lon="6.6139">
        <ele>55.41</ele>
        <time>2016-02-04T08:29:43Z</time>
      </trkpt>
      <trkpt lat="43.4437" lon="6.61388">
        <ele>55.89</ele>
        <time>2016-02-04T08:29:45Z</time>
      </trkpt>
      <trkpt lat="43.44363" lon="6.6138">
        <ele>56.37</ele>
        <time>2016-02-04T08:29:53Z</time>
      </trkpt>
      <trkpt lat="43.44354" lon="6.61372">
        <ele>57.34</ele>
        <time>2016-02-04T08:30:03Z</time>
      </trkpt>
      <trkpt lat="43.44352" lon="6.61359">
        <ele>58.3</ele>
        <time>2016-02-04T08:30:13Z</time>
      </trkpt>
      <trkpt lat="43.44359" lon="6.61341">
        <ele>59.74</ele>
        <time>2016-02-04T08:30:28Z</time>
      </trkpt>
      <trkpt lat="43.44364" lon="6.61333">
        <ele>61.18</ele>
        <time>2016-02-04T08:30:36Z</time>
      </trkpt>
      <trkpt lat="43.44369" lon="6.61334">
        <ele>61.66</ele>
        <time>2016-02-04T08:30:42Z</time>
      </trkpt>
      <trkpt lat="43.44374" lon="6.61338">
        <ele>62.62</ele>
        <time>2016-02-04T08:30:48Z</time>
      </trkpt>
      <trkpt lat="43.44381" lon="6.61352">
        <ele>64.55</ele>
        <time>2016-02-04T08:31:00Z</time>
      </trkpt>
      <trkpt lat="43.44382" lon="6.61354">
        <ele>65.03</ele>
        <time>2016-02-04T08:31:02Z</time>
      </trkpt>
      <trkpt lat="43.44392" lon="6.6136">
        <ele>65.51</ele>
        <time>2016-02-04T08:31:17Z</time>
      </trkpt>
      <trkpt lat="43.44396" lon="6.61357">
        <ele>65.51</ele>
        <time>2016-02-04T08:31:22Z</time>
      </trkpt>
      <trkpt lat="43.44398" lon="6.61353">
        <ele>65.03</ele>
        <time>2016-02-04T08:31:25Z</time>
      </trkpt>
      <trkpt lat="43.44402" lon="6.61347">
        <ele>66.47</ele>
        <time>2016-02-04T08:31:31Z</time>
      </trkpt>
      <trkpt lat="43.44404" lon="6.6134">
        <ele>66.95</ele>
        <time>2016-02-04T08:31:36Z</time>
      </trkpt>
      <trkpt lat="43.44405" lon="6.61331">
        <ele>67.91</ele>
        <time>2016-02-04T08:31:40Z</time>
      </trkpt>
      <trkpt lat="43.44405" lon="6.61325">
        <ele>67.91</ele>
        <time>2016-02-04T08:31:44Z</time>
      </trkpt>
      <trkpt lat="43.44404" lon="6.61309">
        <ele>69.35</ele>
        <time>2016-02-04T08:31:54Z</time>
      </trkpt>
      <trkpt lat="43.44414" lon="6.61295">
        <ele>71.76</ele>
        <time>2016-02-04T08:32:10Z</time>
      </trkpt>
      <trkpt lat="43.44418" lon="6.6129">
        <ele>72.72</ele>
        <time>2016-02-04T08:32:16Z</time>
      </trkpt>
      <trkpt lat="43.44421" lon="6.61281">
        <ele>73.2</ele>
        <time>2016-02-04T08:32:22Z</time>
      </trkpt>
      <trkpt lat="43.4442" lon="6.61272">
        <ele>74.16</ele>
        <time>2016-02-04T08:32:27Z</time>
      </trkpt>
      <trkpt lat="43.44416" lon="6.61265">
        <ele>74.16</ele>
        <time>2016-02-04T08:32:33Z</time>
      </trkpt>
      <trkpt lat="43.44407" lon="6.61259">
        <ele>75.6</ele>
        <time>2016-02-04T08:32:44Z</time>
      </trkpt>
      <trkpt lat="43.44393" lon="6.61246">
        <ele>77.04</ele>
        <time>2016-02-04T08:32:59Z</time>
      </trkpt>
      <trkpt lat="43.44387" lon="6.61241">
        <ele>77.52</ele>
        <time>2016-02-04T08:33:05Z</time>
      </trkpt>
      <trkpt lat="43.44384" lon="6.61237">
        <ele>78</ele>
        <time>2016-02-04T08:33:09Z</time>
      </trkpt>
      <trkpt lat="43.44368" lon="6.61232">
        <ele>78.48</ele>
        <time>2016-02-04T08:33:23Z</time>
      </trkpt>
      <trkpt lat="43.44366" lon="6.61232">
        <ele>78.97</ele>
        <time>2016-02-04T08:33:25Z</time>
      </trkpt>
      <trkpt lat="43.44349" lon="6.6123">
        <ele>79.45</ele>
        <time>2016-02-04T08:33:39Z</time>
      </trkpt>
      <trkpt lat="43.44339" lon="6.61227">
        <ele>81.37</ele>
        <time>2016-02-04T08:33:49Z</time>
      </trkpt>
      <trkpt lat="43.44333" lon="6.61223">
        <ele>81.37</ele>
        <time>2016-02-04T08:33:55Z</time>
      </trkpt>
      <trkpt lat="43.44331" lon="6.61221">
        <ele>82.33</ele>
        <time>2016-02-04T08:33:58Z</time>
      </trkpt>
      <trkpt lat="43.44322" lon="6.61212">
        <ele>83.29</ele>
        <time>2016-02-04T08:34:09Z</time>
      </trkpt>
      <trkpt lat="43.44318" lon="6.61206">
        <ele>83.29</ele>
        <time>2016-02-04T08:34:14Z</time>
      </trkpt>
      <trkpt lat="43.44316" lon="6.612">
        <ele>83.77</ele>
        <time>2016-02-04T08:34:19Z</time>
      </trkpt>
      <trkpt lat="43.44317" lon="6.61188">
        <ele>84.25</ele>
        <time>2016-02-04T08:34:33Z</time>
      </trkpt>
      <trkpt lat="43.4432" lon="6.61183">
        <ele>83.77</ele>
        <time>2016-02-04T08:34:38Z</time>
      </trkpt>
      <trkpt lat="43.44322" lon="6.61174">
        <ele>84.73</ele>
        <time>2016-02-04T08:34:49Z</time>
      </trkpt>
      <trkpt lat="43.44323" lon="6.61171">
        <ele>84.73</ele>
        <time>2016-02-04T08:34:51Z</time>
      </trkpt>
      <trkpt lat="43.44329" lon="6.61148">
        <ele>85.69</ele>
        <time>2016-02-04T08:35:04Z</time>
      </trkpt>
      <trkpt lat="43.44332" lon="6.61137">
        <ele>86.18</ele>
        <time>2016-02-04T08:35:11Z</time>
      </trkpt>
      <trkpt lat="43.44327" lon="6.61107">
        <ele>87.62</ele>
        <time>2016-02-04T08:35:28Z</time>
      </trkpt>
      <trkpt lat="43.44319" lon="6.61098">
        <ele>87.62</ele>
        <time>2016-02-04T08:35:41Z</time>
      </trkpt>
      <trkpt lat="43.44318" lon="6.61094">
        <ele>87.62</ele>
        <time>2016-02-04T08:35:57Z</time>
      </trkpt>
      <trkpt lat="43.44316" lon="6.61088">
        <ele>88.1</ele>
        <time>2016-02-04T08:36:02Z</time>
      </trkpt>
      <trkpt lat="43.44309" lon="6.61077">
        <ele>88.58</ele>
        <time>2016-02-04T08:36:10Z</time>
      </trkpt>
      <trkpt lat="43.44301" lon="6.61064">
        <ele>90.02</ele>
        <time>2016-02-04T08:36:21Z</time>
      </trkpt>
      <trkpt lat="43.44294" lon="6.61048">
        <ele>90.5</ele>
        <time>2016-02-04T08:36:33Z</time>
      </trkpt>
      <trkpt lat="43.44289" lon="6.61032">
        <ele>91.46</ele>
        <time>2016-02-04T08:36:44Z</time>
      </trkpt>
      <trkpt lat="43.44286" lon="6.61028">
        <ele>91.94</ele>
        <time>2016-02-04T08:36:58Z</time>
      </trkpt>
      <trkpt lat="43.44284" lon="6.61029">
        <ele>92.42</ele>
        <time>2016-02-04T08:37:09Z</time>
      </trkpt>
      <trkpt lat="43.44281" lon="6.6102">
        <ele>92.9</ele>
        <time>2016-02-04T08:37:20Z</time>
      </trkpt>
      <trkpt lat="43.44281" lon="6.6102">
        <ele>93.39</ele>
        <time>2016-02-04T08:37:22Z</time>
      </trkpt>
      <trkpt lat="43.44277" lon="6.60999">
        <ele>93.87</ele>
        <time>2016-02-04T08:37:35Z</time>
      </trkpt>
      <trkpt lat="43.44268" lon="6.60977">
        <ele>95.31</ele>
        <time>2016-02-04T08:37:50Z</time>
      </trkpt>
      <trkpt lat="43.44267" lon="6.60964">
        <ele>95.79</ele>
        <time>2016-02-04T08:37:58Z</time>
      </trkpt>
      <trkpt lat="43.4426" lon="6.60932">
        <ele>96.27</ele>
        <time>2016-02-04T08:38:16Z</time>
      </trkpt>
      <trkpt lat="43.44253" lon="6.60908">
        <ele>94.83</ele>
        <time>2016-02-04T08:38:30Z</time>
      </trkpt>
      <trkpt lat="43.44242" lon="6.60884">
        <ele>92.9</ele>
        <time>2016-02-04T08:38:44Z</time>
      </trkpt>
      <trkpt lat="43.44235" lon="6.60868">
        <ele>92.42</ele>
        <time>2016-02-04T08:38:59Z</time>
      </trkpt>
      <trkpt lat="43.44232" lon="6.60869">
        <ele>92.42</ele>
        <time>2016-02-04T08:39:20Z</time>
      </trkpt>
      <trkpt lat="43.44232" lon="6.60869">
        <ele>92.42</ele>
        <time>2016-02-04T08:39:21Z</time>
      </trkpt>
      <trkpt lat="43.44219" lon="6.60857">
        <ele>91.94</ele>
        <time>2016-02-04T08:39:35Z</time>
      </trkpt>
      <trkpt lat="43.44203" lon="6.60844">
        <ele>93.39</ele>
        <time>2016-02-04T08:39:50Z</time>
      </trkpt>
      <trkpt lat="43.44196" lon="6.60838">
        <ele>93.39</ele>
        <time>2016-02-04T08:39:56Z</time>
      </trkpt>
      <trkpt lat="43.44194" lon="6.60836">
        <ele>93.39</ele>
        <time>2016-02-04T08:39:58Z</time>
      </trkpt>
      <trkpt lat="43.44179" lon="6.60822">
        <ele>92.42</ele>
        <time>2016-02-04T08:40:13Z</time>
      </trkpt>
      <trkpt lat="43.44179" lon="6.60821">
        <ele>92.42</ele>
        <time>2016-02-04T08:40:25Z</time>
      </trkpt>
      <trkpt lat="43.44175" lon="6.60809">
        <ele>91.94</ele>
        <time>2016-02-04T08:40:34Z</time>
      </trkpt>
      <trkpt lat="43.44172" lon="6.60801">
        <ele>91.94</ele>
        <time>2016-02-04T08:40:39Z</time>
      </trkpt>
      <trkpt lat="43.4417" lon="6.60792">
        <ele>91.46</ele>
        <time>2016-02-04T08:40:53Z</time>
      </trkpt>
      <trkpt lat="43.4417" lon="6.60785">
        <ele>91.46</ele>
        <time>2016-02-04T08:41:11Z</time>
      </trkpt>
      <trkpt lat="43.44169" lon="6.60778">
        <ele>91.46</ele>
        <time>2016-02-04T08:41:25Z</time>
      </trkpt>
      <trkpt lat="43.44172" lon="6.60771">
        <ele>91.46</ele>
        <time>2016-02-04T08:41:30Z</time>
      </trkpt>
      <trkpt lat="43.44174" lon="6.60755">
        <ele>91.46</ele>
        <time>2016-02-04T08:41:44Z</time>
      </trkpt>
      <trkpt lat="43.44173" lon="6.60747">
        <ele>91.46</ele>
        <time>2016-02-04T08:41:49Z</time>
      </trkpt>
      <trkpt lat="43.44176" lon="6.60729">
        <ele>90.98</ele>
        <time>2016-02-04T08:41:58Z</time>
      </trkpt>
      <trkpt lat="43.44176" lon="6.60699">
        <ele>91.46</ele>
        <time>2016-02-04T08:42:14Z</time>
      </trkpt>
      <trkpt lat="43.44176" lon="6.60699">
        <ele>91.94</ele>
        <time>2016-02-04T08:42:15Z</time>
      </trkpt>
      <trkpt lat="43.44174" lon="6.60704">
        <ele>92.42</ele>
        <time>2016-02-04T08:42:27Z</time>
      </trkpt>
      <trkpt lat="43.44174" lon="6.607">
        <ele>90.98</ele>
        <time>2016-02-04T08:42:31Z</time>
      </trkpt>
      <trkpt lat="43.44177" lon="6.60694">
        <ele>90.98</ele>
        <time>2016-02-04T08:42:36Z</time>
      </trkpt>
      <trkpt lat="43.44178" lon="6.60686">
        <ele>91.46</ele>
        <time>2016-02-04T08:42:42Z</time>
      </trkpt>
      <trkpt lat="43.44182" lon="6.60663">
        <ele>90.98</ele>
        <time>2016-02-04T08:42:57Z</time>
      </trkpt>
      <trkpt lat="43.44182" lon="6.60661">
        <ele>90.98</ele>
        <time>2016-02-04T08:42:58Z</time>
      </trkpt>
      <trkpt lat="43.44185" lon="6.60645">
        <ele>91.94</ele>
        <time>2016-02-04T08:43:07Z</time>
      </trkpt>
      <trkpt lat="43.44191" lon="6.60624">
        <ele>91.46</ele>
        <time>2016-02-04T08:43:21Z</time>
      </trkpt>
      <trkpt lat="43.44195" lon="6.60615">
        <ele>92.42</ele>
        <time>2016-02-04T08:43:27Z</time>
      </trkpt>
      <trkpt lat="43.44199" lon="6.60602">
        <ele>92.42</ele>
        <time>2016-02-04T08:43:35Z</time>
      </trkpt>
      <trkpt lat="43.442" lon="6.60599">
        <ele>92.42</ele>
        <time>2016-02-04T08:43:37Z</time>
      </trkpt>
      <trkpt lat="43.44202" lon="6.60593">
        <ele>92.9</ele>
        <time>2016-02-04T08:43:40Z</time>
      </trkpt>
      <trkpt lat="43.44204" lon="6.60583">
        <ele>92.9</ele>
        <time>2016-02-04T08:43:46Z</time>
      </trkpt>
      <trkpt lat="43.44204" lon="6.60579">
        <ele>93.39</ele>
        <time>2016-02-04T08:43:48Z</time>
      </trkpt>
      <trkpt lat="43.44205" lon="6.6057">
        <ele>93.87</ele>
        <time>2016-02-04T08:43:53Z</time>
      </trkpt>
      <trkpt lat="43.44208" lon="6.60555">
        <ele>93.87</ele>
        <time>2016-02-04T08:44:05Z</time>
      </trkpt>
      <trkpt lat="43.44208" lon="6.60543">
        <ele>95.31</ele>
        <time>2016-02-04T08:44:12Z</time>
      </trkpt>
      <trkpt lat="43.44209" lon="6.6052">
        <ele>96.75</ele>
        <time>2016-02-04T08:44:27Z</time>
      </trkpt>
      <trkpt lat="43.4421" lon="6.60506">
        <ele>96.75</ele>
        <time>2016-02-04T08:44:35Z</time>
      </trkpt>
      <trkpt lat="43.44211" lon="6.60492">
        <ele>97.23</ele>
        <time>2016-02-04T08:44:43Z</time>
      </trkpt>
      <trkpt lat="43.44212" lon="6.60482">
        <ele>98.19</ele>
        <time>2016-02-04T08:44:49Z</time>
      </trkpt>
      <trkpt lat="43.44213" lon="6.60469">
        <ele>99.63</ele>
        <time>2016-02-04T08:44:57Z</time>
      </trkpt>
      <trkpt lat="43.44212" lon="6.6046">
        <ele>100.11</ele>
        <time>2016-02-04T08:45:02Z</time>
      </trkpt>
      <trkpt lat="43.44212" lon="6.60444">
        <ele>101.08</ele>
        <time>2016-02-04T08:45:16Z</time>
      </trkpt>
      <trkpt lat="43.4421" lon="6.60432">
        <ele>101.56</ele>
        <time>2016-02-04T08:45:31Z</time>
      </trkpt>
      <trkpt lat="43.44209" lon="6.60429">
        <ele>101.56</ele>
        <time>2016-02-04T08:45:53Z</time>
      </trkpt>
      <trkpt lat="43.44206" lon="6.60418">
        <ele>103</ele>
        <time>2016-02-04T08:46:06Z</time>
      </trkpt>
      <trkpt lat="43.44208" lon="6.60412">
        <ele>103.48</ele>
        <time>2016-02-04T08:46:24Z</time>
      </trkpt>
      <trkpt lat="43.4421" lon="6.60402">
        <ele>105.4</ele>
        <time>2016-02-04T08:46:37Z</time>
      </trkpt>
      <trkpt lat="43.44211" lon="6.60399">
        <ele>105.88</ele>
        <time>2016-02-04T08:46:43Z</time>
      </trkpt>
      <trkpt lat="43.44221" lon="6.60384">
        <ele>106.36</ele>
        <time>2016-02-04T08:46:55Z</time>
      </trkpt>
      <trkpt lat="43.44223" lon="6.60379">
        <ele>105.88</ele>
        <time>2016-02-04T08:46:59Z</time>
      </trkpt>
      <trkpt lat="43.44229" lon="6.60366">
        <ele>106.36</ele>
        <time>2016-02-04T08:47:07Z</time>
      </trkpt>
      <trkpt lat="43.44232" lon="6.60358">
        <ele>106.84</ele>
        <time>2016-02-04T08:47:20Z</time>
      </trkpt>
      <trkpt lat="43.44234" lon="6.6035">
        <ele>107.81</ele>
        <time>2016-02-04T08:47:35Z</time>
      </trkpt>
      <trkpt lat="43.44236" lon="6.60341">
        <ele>108.29</ele>
        <time>2016-02-04T08:47:45Z</time>
      </trkpt>
      <trkpt lat="43.44239" lon="6.60328">
        <ele>108.29</ele>
        <time>2016-02-04T08:47:52Z</time>
      </trkpt>
      <trkpt lat="43.44239" lon="6.60315">
        <ele>108.77</ele>
        <time>2016-02-04T08:48:00Z</time>
      </trkpt>
      <trkpt lat="43.44238" lon="6.60305">
        <ele>109.25</ele>
        <time>2016-02-04T08:48:16Z</time>
      </trkpt>
      <trkpt lat="43.4424" lon="6.60295">
        <ele>110.21</ele>
        <time>2016-02-04T08:48:34Z</time>
      </trkpt>
      <trkpt lat="43.44241" lon="6.60276">
        <ele>110.69</ele>
        <time>2016-02-04T08:48:48Z</time>
      </trkpt>
      <trkpt lat="43.44245" lon="6.60266">
        <ele>112.13</ele>
        <time>2016-02-04T08:49:01Z</time>
      </trkpt>
      <trkpt lat="43.44249" lon="6.60253">
        <ele>114.05</ele>
        <time>2016-02-04T08:49:15Z</time>
      </trkpt>
      <trkpt lat="43.44249" lon="6.60252">
        <ele>114.53</ele>
        <time>2016-02-04T08:49:29Z</time>
      </trkpt>
      <trkpt lat="43.4425" lon="6.60245">
        <ele>114.53</ele>
        <time>2016-02-04T08:49:33Z</time>
      </trkpt>
      <trkpt lat="43.44254" lon="6.60237">
        <ele>115.01</ele>
        <time>2016-02-04T08:49:40Z</time>
      </trkpt>
      <trkpt lat="43.44256" lon="6.60232">
        <ele>115.5</ele>
        <time>2016-02-04T08:49:43Z</time>
      </trkpt>
      <trkpt lat="43.4426" lon="6.60214">
        <ele>117.9</ele>
        <time>2016-02-04T08:49:55Z</time>
      </trkpt>
      <trkpt lat="43.44262" lon="6.60198">
        <ele>118.86</ele>
        <time>2016-02-04T08:50:06Z</time>
      </trkpt>
      <trkpt lat="43.44263" lon="6.60195">
        <ele>119.34</ele>
        <time>2016-02-04T08:50:08Z</time>
      </trkpt>
      <trkpt lat="43.44267" lon="6.60186">
        <ele>120.3</ele>
        <time>2016-02-04T08:50:15Z</time>
      </trkpt>
      <trkpt lat="43.44268" lon="6.60181">
        <ele>121.26</ele>
        <time>2016-02-04T08:50:19Z</time>
      </trkpt>
      <trkpt lat="43.44272" lon="6.60177">
        <ele>121.74</ele>
        <time>2016-02-04T08:50:26Z</time>
      </trkpt>
      <trkpt lat="43.44277" lon="6.6017">
        <ele>121.74</ele>
        <time>2016-02-04T08:50:32Z</time>
      </trkpt>
      <trkpt lat="43.44283" lon="6.60164">
        <ele>121.26</ele>
        <time>2016-02-04T08:50:44Z</time>
      </trkpt>
      <trkpt lat="43.44283" lon="6.60164">
        <ele>121.74</ele>
        <time>2016-02-04T08:50:45Z</time>
      </trkpt>
      <trkpt lat="43.4429" lon="6.60157">
        <ele>122.22</ele>
        <time>2016-02-04T08:50:57Z</time>
      </trkpt>
      <trkpt lat="43.44295" lon="6.60147">
        <ele>124.15</ele>
        <time>2016-02-04T08:51:08Z</time>
      </trkpt>
      <trkpt lat="43.44295" lon="6.60139">
        <ele>123.19</ele>
        <time>2016-02-04T08:51:18Z</time>
      </trkpt>
      <trkpt lat="43.44295" lon="6.60137">
        <ele>123.67</ele>
        <time>2016-02-04T08:51:26Z</time>
      </trkpt>
      <trkpt lat="43.44293" lon="6.60142">
        <ele>124.15</ele>
        <time>2016-02-04T08:51:39Z</time>
      </trkpt>
      <trkpt lat="43.44292" lon="6.60141">
        <ele>124.15</ele>
        <time>2016-02-04T08:51:52Z</time>
      </trkpt>
      <trkpt lat="43.44294" lon="6.60145">
        <ele>123.67</ele>
        <time>2016-02-04T08:52:03Z</time>
      </trkpt>
      <trkpt lat="43.44297" lon="6.60145">
        <ele>124.15</ele>
        <time>2016-02-04T08:52:06Z</time>
      </trkpt>
      <trkpt lat="43.44303" lon="6.60145">
        <ele>126.07</ele>
        <time>2016-02-04T08:52:18Z</time>
      </trkpt>
      <trkpt lat="43.4431" lon="6.60145">
        <ele>128.95</ele>
        <time>2016-02-04T08:52:28Z</time>
      </trkpt>
      <trkpt lat="43.44311" lon="6.60145">
        <ele>127.99</ele>
        <time>2016-02-04T08:52:29Z</time>
      </trkpt>
      <trkpt lat="43.44323" lon="6.60141">
        <ele>129.92</ele>
        <time>2016-02-04T08:52:46Z</time>
      </trkpt>
      <trkpt lat="43.44332" lon="6.60132">
        <ele>128.47</ele>
        <time>2016-02-04T08:53:00Z</time>
      </trkpt>
      <trkpt lat="43.44342" lon="6.60118">
        <ele>127.51</ele>
        <time>2016-02-04T08:53:12Z</time>
      </trkpt>
      <trkpt lat="43.44342" lon="6.60113">
        <ele>127.03</ele>
        <time>2016-02-04T08:53:31Z</time>
      </trkpt>
      <trkpt lat="43.44345" lon="6.60116">
        <ele>127.99</ele>
        <time>2016-02-04T08:53:38Z</time>
      </trkpt>
      <trkpt lat="43.44353" lon="6.60109">
        <ele>127.51</ele>
        <time>2016-02-04T08:53:50Z</time>
      </trkpt>
      <trkpt lat="43.4436" lon="6.60098">
        <ele>128.95</ele>
        <time>2016-02-04T08:54:02Z</time>
      </trkpt>
      <trkpt lat="43.44361" lon="6.60096">
        <ele>129.43</ele>
        <time>2016-02-04T08:54:04Z</time>
      </trkpt>
      <trkpt lat="43.44365" lon="6.60088">
        <ele>130.4</ele>
        <time>2016-02-04T08:54:10Z</time>
      </trkpt>
      <trkpt lat="43.44367" lon="6.60086">
        <ele>130.4</ele>
        <time>2016-02-04T08:54:12Z</time>
      </trkpt>
      <trkpt lat="43.44369" lon="6.60075">
        <ele>131.36</ele>
        <time>2016-02-04T08:54:19Z</time>
      </trkpt>
      <trkpt lat="43.4437" lon="6.6006">
        <ele>131.36</ele>
        <time>2016-02-04T08:54:30Z</time>
      </trkpt>
      <trkpt lat="43.44371" lon="6.60054">
        <ele>131.84</ele>
        <time>2016-02-04T08:54:42Z</time>
      </trkpt>
      <trkpt lat="43.44372" lon="6.60052">
        <ele>132.32</ele>
        <time>2016-02-04T08:54:47Z</time>
      </trkpt>
      <trkpt lat="43.44372" lon="6.60043">
        <ele>132.8</ele>
        <time>2016-02-04T08:54:52Z</time>
      </trkpt>
      <trkpt lat="43.44372" lon="6.60031">
        <ele>133.28</ele>
        <time>2016-02-04T08:55:06Z</time>
      </trkpt>
      <trkpt lat="43.44374" lon="6.60025">
        <ele>134.72</ele>
        <time>2016-02-04T08:55:12Z</time>
      </trkpt>
      <trkpt lat="43.44378" lon="6.60011">
        <ele>136.16</ele>
        <time>2016-02-04T08:55:24Z</time>
      </trkpt>
      <trkpt lat="43.44381" lon="6.60005">
        <ele>137.13</ele>
        <time>2016-02-04T08:55:29Z</time>
      </trkpt>
      <trkpt lat="43.44386" lon="6.59995">
        <ele>140.49</ele>
        <time>2016-02-04T08:55:41Z</time>
      </trkpt>
      <trkpt lat="43.44389" lon="6.59988">
        <ele>141.93</ele>
        <time>2016-02-04T08:55:52Z</time>
      </trkpt>
      <trkpt lat="43.44389" lon="6.59983">
        <ele>141.93</ele>
        <time>2016-02-04T08:56:04Z</time>
      </trkpt>
      <trkpt lat="43.44391" lon="6.59974">
        <ele>141.93</ele>
        <time>2016-02-04T08:56:19Z</time>
      </trkpt>
      <trkpt lat="43.44393" lon="6.5997">
        <ele>142.89</ele>
        <time>2016-02-04T08:56:30Z</time>
      </trkpt>
      <trkpt lat="43.44389" lon="6.59962">
        <ele>142.41</ele>
        <time>2016-02-04T08:56:42Z</time>
      </trkpt>
      <trkpt lat="43.4439" lon="6.59966">
        <ele>142.41</ele>
        <time>2016-02-04T08:56:47Z</time>
      </trkpt>
      <trkpt lat="43.44397" lon="6.59964">
        <ele>143.85</ele>
        <time>2016-02-04T08:56:57Z</time>
      </trkpt>
      <trkpt lat="43.44401" lon="6.59963">
        <ele>144.82</ele>
        <time>2016-02-04T08:57:01Z</time>
      </trkpt>
      <trkpt lat="43.44411" lon="6.59947">
        <ele>144.82</ele>
        <time>2016-02-04T08:57:15Z</time>
      </trkpt>
      <trkpt lat="43.44416" lon="6.59943">
        <ele>145.3</ele>
        <time>2016-02-04T08:57:27Z</time>
      </trkpt>
      <trkpt lat="43.44422" lon="6.59938">
        <ele>145.3</ele>
        <time>2016-02-04T08:57:34Z</time>
      </trkpt>
      <trkpt lat="43.44428" lon="6.59921">
        <ele>146.74</ele>
        <time>2016-02-04T08:57:45Z</time>
      </trkpt>
      <trkpt lat="43.44434" lon="6.59909">
        <ele>146.26</ele>
        <time>2016-02-04T08:57:54Z</time>
      </trkpt>
      <trkpt lat="43.44436" lon="6.59904">
        <ele>146.74</ele>
        <time>2016-02-04T08:57:57Z</time>
      </trkpt>
      <trkpt lat="43.44439" lon="6.59899">
        <ele>145.78</ele>
        <time>2016-02-04T08:58:02Z</time>
      </trkpt>
      <trkpt lat="43.44442" lon="6.59895">
        <ele>145.78</ele>
        <time>2016-02-04T08:58:05Z</time>
      </trkpt>
      <trkpt lat="43.44449" lon="6.59882">
        <ele>147.22</ele>
        <time>2016-02-04T08:58:19Z</time>
      </trkpt>
      <trkpt lat="43.4445" lon="6.59881">
        <ele>147.7</ele>
        <time>2016-02-04T08:58:26Z</time>
      </trkpt>
      <trkpt lat="43.44452" lon="6.59875">
        <ele>147.7</ele>
        <time>2016-02-04T08:58:30Z</time>
      </trkpt>
      <trkpt lat="43.44453" lon="6.59871">
        <ele>148.18</ele>
        <time>2016-02-04T08:58:33Z</time>
      </trkpt>
      <trkpt lat="43.44454" lon="6.59866">
        <ele>148.66</ele>
        <time>2016-02-04T08:58:36Z</time>
      </trkpt>
      <trkpt lat="43.44455" lon="6.5986">
        <ele>149.14</ele>
        <time>2016-02-04T08:58:40Z</time>
      </trkpt>
      <trkpt lat="43.44462" lon="6.59846">
        <ele>149.14</ele>
        <time>2016-02-04T08:58:52Z</time>
      </trkpt>
      <trkpt lat="43.44468" lon="6.59842">
        <ele>151.54</ele>
        <time>2016-02-04T08:59:01Z</time>
      </trkpt>
      <trkpt lat="43.44476" lon="6.59839">
        <ele>152.99</ele>
        <time>2016-02-04T08:59:11Z</time>
      </trkpt>
      <trkpt lat="43.44479" lon="6.59838">
        <ele>152.99</ele>
        <time>2016-02-04T08:59:14Z</time>
      </trkpt>
      <trkpt lat="43.44493" lon="6.59837">
        <ele>154.91</ele>
        <time>2016-02-04T08:59:28Z</time>
      </trkpt>
      <trkpt lat="43.445" lon="6.59837">
        <ele>155.87</ele>
        <time>2016-02-04T08:59:35Z</time>
      </trkpt>
      <trkpt lat="43.44507" lon="6.59836">
        <ele>155.87</ele>
        <time>2016-02-04T08:59:40Z</time>
      </trkpt>
      <trkpt lat="43.44522" lon="6.59826">
        <ele>157.31</ele>
        <time>2016-02-04T08:59:55Z</time>
      </trkpt>
      <trkpt lat="43.44529" lon="6.59822">
        <ele>157.79</ele>
        <time>2016-02-04T09:00:01Z</time>
      </trkpt>
      <trkpt lat="43.44534" lon="6.59819">
        <ele>158.75</ele>
        <time>2016-02-04T09:00:06Z</time>
      </trkpt>
      <trkpt lat="43.44541" lon="6.59812">
        <ele>159.24</ele>
        <time>2016-02-04T09:00:13Z</time>
      </trkpt>
      <trkpt lat="43.44546" lon="6.59811">
        <ele>159.72</ele>
        <time>2016-02-04T09:00:17Z</time>
      </trkpt>
      <trkpt lat="43.44548" lon="6.59811">
        <ele>160.2</ele>
        <time>2016-02-04T09:00:20Z</time>
      </trkpt>
      <trkpt lat="43.44554" lon="6.59813">
        <ele>161.64</ele>
        <time>2016-02-04T09:00:27Z</time>
      </trkpt>
      <trkpt lat="43.44562" lon="6.59813">
        <ele>162.6</ele>
        <time>2016-02-04T09:00:36Z</time>
      </trkpt>
      <trkpt lat="43.44574" lon="6.5982">
        <ele>165.96</ele>
        <time>2016-02-04T09:00:49Z</time>
      </trkpt>
      <trkpt lat="43.44586" lon="6.59827">
        <ele>168.37</ele>
        <time>2016-02-04T09:01:01Z</time>
      </trkpt>
      <trkpt lat="43.4459" lon="6.59828">
        <ele>168.85</ele>
        <time>2016-02-04T09:01:05Z</time>
      </trkpt>
      <trkpt lat="43.44592" lon="6.59829">
        <ele>169.33</ele>
        <time>2016-02-04T09:01:07Z</time>
      </trkpt>
      <trkpt lat="43.44603" lon="6.59831">
        <ele>171.25</ele>
        <time>2016-02-04T09:01:17Z</time>
      </trkpt>
      <trkpt lat="43.44606" lon="6.5983">
        <ele>171.25</ele>
        <time>2016-02-04T09:01:19Z</time>
      </trkpt>
      <trkpt lat="43.44611" lon="6.59829">
        <ele>171.73</ele>
        <time>2016-02-04T09:01:23Z</time>
      </trkpt>
      <trkpt lat="43.44625" lon="6.59825">
        <ele>173.17</ele>
        <time>2016-02-04T09:01:35Z</time>
      </trkpt>
      <trkpt lat="43.44641" lon="6.5982">
        <ele>173.66</ele>
        <time>2016-02-04T09:01:49Z</time>
      </trkpt>
      <trkpt lat="43.44648" lon="6.59813">
        <ele>172.21</ele>
        <time>2016-02-04T09:01:55Z</time>
      </trkpt>
      <trkpt lat="43.44653" lon="6.59812">
        <ele>171.25</ele>
        <time>2016-02-04T09:01:58Z</time>
      </trkpt>
      <trkpt lat="43.44667" lon="6.59799">
        <ele>172.21</ele>
        <time>2016-02-04T09:02:12Z</time>
      </trkpt>
      <trkpt lat="43.44676" lon="6.59792">
        <ele>173.17</ele>
        <time>2016-02-04T09:02:20Z</time>
      </trkpt>
      <trkpt lat="43.44693" lon="6.59784">
        <ele>174.62</ele>
        <time>2016-02-04T09:02:36Z</time>
      </trkpt>
      <trkpt lat="43.44705" lon="6.59791">
        <ele>176.06</ele>
        <time>2016-02-04T09:02:49Z</time>
      </trkpt>
      <trkpt lat="43.44705" lon="6.59794">
        <ele>176.06</ele>
        <time>2016-02-04T09:02:52Z</time>
      </trkpt>
      <trkpt lat="43.44713" lon="6.59814">
        <ele>177.02</ele>
        <time>2016-02-04T09:03:05Z</time>
      </trkpt>
      <trkpt lat="43.44717" lon="6.59819">
        <ele>177.98</ele>
        <time>2016-02-04T09:03:17Z</time>
      </trkpt>
      <trkpt lat="43.44721" lon="6.5982">
        <ele>178.46</ele>
        <time>2016-02-04T09:03:28Z</time>
      </trkpt>
      <trkpt lat="43.44731" lon="6.59816">
        <ele>177.98</ele>
        <time>2016-02-04T09:03:39Z</time>
      </trkpt>
      <trkpt lat="43.44735" lon="6.59813">
        <ele>178.46</ele>
        <time>2016-02-04T09:03:42Z</time>
      </trkpt>
      <trkpt lat="43.44738" lon="6.59796">
        <ele>178.46</ele>
        <time>2016-02-04T09:03:53Z</time>
      </trkpt>
      <trkpt lat="43.44738" lon="6.59788">
        <ele>178.46</ele>
        <time>2016-02-04T09:03:57Z</time>
      </trkpt>
      <trkpt lat="43.44739" lon="6.59767">
        <ele>179.42</ele>
        <time>2016-02-04T09:04:10Z</time>
      </trkpt>
      <trkpt lat="43.44738" lon="6.59765">
        <ele>179.42</ele>
        <time>2016-02-04T09:04:14Z</time>
      </trkpt>
      <trkpt lat="43.44741" lon="6.59754">
        <ele>180.87</ele>
        <time>2016-02-04T09:04:26Z</time>
      </trkpt>
      <trkpt lat="43.44741" lon="6.5975">
        <ele>180.38</ele>
        <time>2016-02-04T09:04:41Z</time>
      </trkpt>
      <trkpt lat="43.44741" lon="6.59748">
        <ele>180.87</ele>
        <time>2016-02-04T09:04:43Z</time>
      </trkpt>
      <trkpt lat="43.44742" lon="6.59742">
        <ele>181.35</ele>
        <time>2016-02-04T09:04:47Z</time>
      </trkpt>
      <trkpt lat="43.44743" lon="6.59727">
        <ele>180.87</ele>
        <time>2016-02-04T09:04:57Z</time>
      </trkpt>
      <trkpt lat="43.44735" lon="6.59704">
        <ele>181.35</ele>
        <time>2016-02-04T09:05:11Z</time>
      </trkpt>
      <trkpt lat="43.44735" lon="6.59701">
        <ele>181.83</ele>
        <time>2016-02-04T09:05:13Z</time>
      </trkpt>
      <trkpt lat="43.44733" lon="6.5968">
        <ele>180.38</ele>
        <time>2016-02-04T09:05:25Z</time>
      </trkpt>
      <trkpt lat="43.44732" lon="6.59677">
        <ele>179.9</ele>
        <time>2016-02-04T09:05:27Z</time>
      </trkpt>
      <trkpt lat="43.44727" lon="6.59656">
        <ele>178.94</ele>
        <time>2016-02-04T09:05:40Z</time>
      </trkpt>
      <trkpt lat="43.44722" lon="6.59652">
        <ele>179.42</ele>
        <time>2016-02-04T09:05:44Z</time>
      </trkpt>
      <trkpt lat="43.44718" lon="6.59653">
        <ele>179.42</ele>
        <time>2016-02-04T09:05:48Z</time>
      </trkpt>
      <trkpt lat="43.44715" lon="6.59653">
        <ele>179.42</ele>
        <time>2016-02-04T09:05:50Z</time>
      </trkpt>
      <trkpt lat="43.44699" lon="6.59656">
        <ele>180.38</ele>
        <time>2016-02-04T09:06:04Z</time>
      </trkpt>
      <trkpt lat="43.44695" lon="6.59656">
        <ele>181.35</ele>
        <time>2016-02-04T09:06:08Z</time>
      </trkpt>
      <trkpt lat="43.44689" lon="6.59635">
        <ele>183.75</ele>
        <time>2016-02-04T09:06:23Z</time>
      </trkpt>
      <trkpt lat="43.44688" lon="6.59625">
        <ele>184.23</ele>
        <time>2016-02-04T09:06:29Z</time>
      </trkpt>
      <trkpt lat="43.44688" lon="6.59619">
        <ele>185.19</ele>
        <time>2016-02-04T09:06:33Z</time>
      </trkpt>
      <trkpt lat="43.44686" lon="6.59594">
        <ele>187.11</ele>
        <time>2016-02-04T09:06:48Z</time>
      </trkpt>
      <trkpt lat="43.44692" lon="6.5957">
        <ele>187.59</ele>
        <time>2016-02-04T09:07:03Z</time>
      </trkpt>
      <trkpt lat="43.44702" lon="6.59547">
        <ele>187.59</ele>
        <time>2016-02-04T09:07:18Z</time>
      </trkpt>
      <trkpt lat="43.44713" lon="6.59533">
        <ele>188.08</ele>
        <time>2016-02-04T09:07:30Z</time>
      </trkpt>
      <trkpt lat="43.44727" lon="6.5951">
        <ele>188.56</ele>
        <time>2016-02-04T09:07:45Z</time>
      </trkpt>
      <trkpt lat="43.44729" lon="6.59506">
        <ele>189.04</ele>
        <time>2016-02-04T09:07:47Z</time>
      </trkpt>
      <trkpt lat="43.44733" lon="6.59497">
        <ele>189.52</ele>
        <time>2016-02-04T09:07:54Z</time>
      </trkpt>
      <trkpt lat="43.44745" lon="6.59484">
        <ele>190.96</ele>
        <time>2016-02-04T09:08:08Z</time>
      </trkpt>
      <trkpt lat="43.44763" lon="6.59479">
        <ele>192.4</ele>
        <time>2016-02-04T09:08:23Z</time>
      </trkpt>
      <trkpt lat="43.44772" lon="6.59474">
        <ele>192.88</ele>
        <time>2016-02-04T09:08:29Z</time>
      </trkpt>
      <trkpt lat="43.44785" lon="6.5946">
        <ele>194.32</ele>
        <time>2016-02-04T09:08:41Z</time>
      </trkpt>
      <trkpt lat="43.44801" lon="6.59445">
        <ele>196.25</ele>
        <time>2016-02-04T09:08:54Z</time>
      </trkpt>
      <trkpt lat="43.44802" lon="6.59444">
        <ele>196.73</ele>
        <time>2016-02-04T09:08:56Z</time>
      </trkpt>
      <trkpt lat="43.44807" lon="6.59438">
        <ele>197.21</ele>
        <time>2016-02-04T09:09:01Z</time>
      </trkpt>
      <trkpt lat="43.44812" lon="6.5943">
        <ele>196.73</ele>
        <time>2016-02-04T09:09:07Z</time>
      </trkpt>
      <trkpt lat="43.44818" lon="6.59427">
        <ele>196.25</ele>
        <time>2016-02-04T09:09:22Z</time>
      </trkpt>
      <trkpt lat="43.44818" lon="6.59427">
        <ele>196.25</ele>
        <time>2016-02-04T09:09:27Z</time>
      </trkpt>
      <trkpt lat="43.44823" lon="6.59421">
        <ele>196.25</ele>
        <time>2016-02-04T09:09:32Z</time>
      </trkpt>
      <trkpt lat="43.44825" lon="6.59418">
        <ele>196.25</ele>
        <time>2016-02-04T09:09:35Z</time>
      </trkpt>
      <trkpt lat="43.44838" lon="6.59401">
        <ele>197.69</ele>
        <time>2016-02-04T09:09:47Z</time>
      </trkpt>
      <trkpt lat="43.44843" lon="6.59394">
        <ele>197.69</ele>
        <time>2016-02-04T09:09:52Z</time>
      </trkpt>
      <trkpt lat="43.44853" lon="6.59392">
        <ele>197.21</ele>
        <time>2016-02-04T09:09:59Z</time>
      </trkpt>
      <trkpt lat="43.44863" lon="6.59387">
        <ele>197.21</ele>
        <time>2016-02-04T09:10:08Z</time>
      </trkpt>
      <trkpt lat="43.44872" lon="6.59375">
        <ele>195.77</ele>
        <time>2016-02-04T09:10:17Z</time>
      </trkpt>
      <trkpt lat="43.44876" lon="6.59367">
        <ele>195.28</ele>
        <time>2016-02-04T09:10:22Z</time>
      </trkpt>
      <trkpt lat="43.44881" lon="6.5936">
        <ele>194.8</ele>
        <time>2016-02-04T09:10:28Z</time>
      </trkpt>
      <trkpt lat="43.44892" lon="6.59349">
        <ele>194.32</ele>
        <time>2016-02-04T09:10:38Z</time>
      </trkpt>
      <trkpt lat="43.44902" lon="6.59339">
        <ele>194.32</ele>
        <time>2016-02-04T09:10:50Z</time>
      </trkpt>
      <trkpt lat="43.44916" lon="6.59315">
        <ele>195.77</ele>
        <time>2016-02-04T09:11:06Z</time>
      </trkpt>
      <trkpt lat="43.44918" lon="6.59314">
        <ele>195.77</ele>
        <time>2016-02-04T09:11:08Z</time>
      </trkpt>
      <trkpt lat="43.4493" lon="6.59313">
        <ele>198.17</ele>
        <time>2016-02-04T09:11:20Z</time>
      </trkpt>
      <trkpt lat="43.44935" lon="6.59311">
        <ele>198.65</ele>
        <time>2016-02-04T09:11:28Z</time>
      </trkpt>
      <trkpt lat="43.4495" lon="6.59313">
        <ele>200.57</ele>
        <time>2016-02-04T09:11:42Z</time>
      </trkpt>
      <trkpt lat="43.44955" lon="6.59317">
        <ele>201.53</ele>
        <time>2016-02-04T09:11:51Z</time>
      </trkpt>
      <trkpt lat="43.44961" lon="6.59327">
        <ele>202.98</ele>
        <time>2016-02-04T09:12:03Z</time>
      </trkpt>
      <trkpt lat="43.44967" lon="6.59326">
        <ele>203.94</ele>
        <time>2016-02-04T09:12:10Z</time>
      </trkpt>
      <trkpt lat="43.4497" lon="6.59327">
        <ele>204.9</ele>
        <time>2016-02-04T09:12:13Z</time>
      </trkpt>
      <trkpt lat="43.44977" lon="6.5933">
        <ele>206.34</ele>
        <time>2016-02-04T09:12:25Z</time>
      </trkpt>
      <trkpt lat="43.44982" lon="6.5934">
        <ele>208.26</ele>
        <time>2016-02-04T09:12:35Z</time>
      </trkpt>
      <trkpt lat="43.44989" lon="6.59343">
        <ele>209.22</ele>
        <time>2016-02-04T09:12:47Z</time>
      </trkpt>
      <trkpt lat="43.44994" lon="6.59345">
        <ele>210.19</ele>
        <time>2016-02-04T09:12:56Z</time>
      </trkpt>
      <trkpt lat="43.44999" lon="6.59354">
        <ele>212.59</ele>
        <time>2016-02-04T09:13:08Z</time>
      </trkpt>
      <trkpt lat="43.45" lon="6.59355">
        <ele>212.59</ele>
        <time>2016-02-04T09:13:10Z</time>
      </trkpt>
      <trkpt lat="43.45009" lon="6.59361">
        <ele>215.47</ele>
        <time>2016-02-04T09:13:25Z</time>
      </trkpt>
      <trkpt lat="43.45022" lon="6.59359">
        <ele>217.88</ele>
        <time>2016-02-04T09:13:38Z</time>
      </trkpt>
      <trkpt lat="43.45026" lon="6.59359">
        <ele>219.32</ele>
        <time>2016-02-04T09:13:42Z</time>
      </trkpt>
      <trkpt lat="43.45034" lon="6.5936">
        <ele>221.24</ele>
        <time>2016-02-04T09:13:54Z</time>
      </trkpt>
      <trkpt lat="43.45042" lon="6.59361">
        <ele>224.12</ele>
        <time>2016-02-04T09:14:06Z</time>
      </trkpt>
      <trkpt lat="43.45055" lon="6.5936">
        <ele>225.09</ele>
        <time>2016-02-04T09:14:20Z</time>
      </trkpt>
      <trkpt lat="43.45058" lon="6.59358">
        <ele>225.57</ele>
        <time>2016-02-04T09:14:53Z</time>
      </trkpt>
      <trkpt lat="43.45058" lon="6.59358">
        <ele>226.53</ele>
        <time>2016-02-04T09:15:01Z</time>
      </trkpt>
      <trkpt lat="43.45059" lon="6.59358">
        <ele>225.57</ele>
        <time>2016-02-04T09:15:31Z</time>
      </trkpt>
      <trkpt lat="43.45063" lon="6.59359">
        <ele>226.05</ele>
        <time>2016-02-04T09:15:35Z</time>
      </trkpt>
      <trkpt lat="43.45073" lon="6.5936">
        <ele>227.01</ele>
        <time>2016-02-04T09:15:47Z</time>
      </trkpt>
      <trkpt lat="43.45084" lon="6.5936">
        <ele>227.01</ele>
        <time>2016-02-04T09:16:00Z</time>
      </trkpt>
      <trkpt lat="43.45089" lon="6.59361">
        <ele>226.53</ele>
        <time>2016-02-04T09:16:05Z</time>
      </trkpt>
      <trkpt lat="43.451" lon="6.59364">
        <ele>225.57</ele>
        <time>2016-02-04T09:16:15Z</time>
      </trkpt>
      <trkpt lat="43.45109" lon="6.59366">
        <ele>225.57</ele>
        <time>2016-02-04T09:16:21Z</time>
      </trkpt>
      <trkpt lat="43.45119" lon="6.59374">
        <ele>226.05</ele>
        <time>2016-02-04T09:16:30Z</time>
      </trkpt>
      <trkpt lat="43.45136" lon="6.59377">
        <ele>224.61</ele>
        <time>2016-02-04T09:16:44Z</time>
      </trkpt>
      <trkpt lat="43.45152" lon="6.59376">
        <ele>222.68</ele>
        <time>2016-02-04T09:16:57Z</time>
      </trkpt>
      <trkpt lat="43.45157" lon="6.59373">
        <ele>222.68</ele>
        <time>2016-02-04T09:17:02Z</time>
      </trkpt>
      <trkpt lat="43.45164" lon="6.59374">
        <ele>222.2</ele>
        <time>2016-02-04T09:17:09Z</time>
      </trkpt>
      <trkpt lat="43.45181" lon="6.59375">
        <ele>223.16</ele>
        <time>2016-02-04T09:17:23Z</time>
      </trkpt>
      <trkpt lat="43.45187" lon="6.59378">
        <ele>223.64</ele>
        <time>2016-02-04T09:17:30Z</time>
      </trkpt>
      <trkpt lat="43.452" lon="6.59387">
        <ele>225.57</ele>
        <time>2016-02-04T09:17:43Z</time>
      </trkpt>
      <trkpt lat="43.45216" lon="6.59395">
        <ele>226.05</ele>
        <time>2016-02-04T09:17:57Z</time>
      </trkpt>
      <trkpt lat="43.45229" lon="6.59399">
        <ele>225.57</ele>
        <time>2016-02-04T09:18:11Z</time>
      </trkpt>
      <trkpt lat="43.45248" lon="6.59404">
        <ele>226.05</ele>
        <time>2016-02-04T09:18:25Z</time>
      </trkpt>
      <trkpt lat="43.45266" lon="6.59412">
        <ele>226.05</ele>
        <time>2016-02-04T09:18:42Z</time>
      </trkpt>
      <trkpt lat="43.45277" lon="6.59415">
        <ele>225.57</ele>
        <time>2016-02-04T09:18:57Z</time>
      </trkpt>
      <trkpt lat="43.45283" lon="6.5942">
        <ele>225.57</ele>
        <time>2016-02-04T09:19:01Z</time>
      </trkpt>
      <trkpt lat="43.45292" lon="6.59429">
        <ele>225.09</ele>
        <time>2016-02-04T09:19:12Z</time>
      </trkpt>
      <trkpt lat="43.45304" lon="6.5943">
        <ele>224.61</ele>
        <time>2016-02-04T09:19:23Z</time>
      </trkpt>
      <trkpt lat="43.45306" lon="6.59428">
        <ele>224.61</ele>
        <time>2016-02-04T09:19:41Z</time>
      </trkpt>
      <trkpt lat="43.45315" lon="6.59428">
        <ele>224.61</ele>
        <time>2016-02-04T09:19:52Z</time>
      </trkpt>
      <trkpt lat="43.45333" lon="6.59429">
        <ele>224.12</ele>
        <time>2016-02-04T09:20:00Z</time>
      </trkpt>
      <trkpt lat="43.45348" lon="6.59424">
        <ele>224.12</ele>
        <time>2016-02-04T09:20:17Z</time>
      </trkpt>
      <trkpt lat="43.45355" lon="6.59415">
        <ele>225.57</ele>
        <time>2016-02-04T09:20:31Z</time>
      </trkpt>
      <trkpt lat="43.45357" lon="6.59417">
        <ele>227.97</ele>
        <time>2016-02-04T09:20:43Z</time>
      </trkpt>
      <trkpt lat="43.45361" lon="6.59418">
        <ele>230.37</ele>
        <time>2016-02-04T09:21:02Z</time>
      </trkpt>
      <trkpt lat="43.45366" lon="6.59419">
        <ele>230.85</ele>
        <time>2016-02-04T09:21:17Z</time>
      </trkpt>
      <trkpt lat="43.45368" lon="6.5942">
        <ele>229.89</ele>
        <time>2016-02-04T09:21:27Z</time>
      </trkpt>
      <trkpt lat="43.45379" lon="6.59422">
        <ele>230.85</ele>
        <time>2016-02-04T09:21:39Z</time>
      </trkpt>
      <trkpt lat="43.45384" lon="6.59421">
        <ele>232.78</ele>
        <time>2016-02-04T09:21:51Z</time>
      </trkpt>
      <trkpt lat="43.45384" lon="6.59422">
        <ele>231.81</ele>
        <time>2016-02-04T09:22:14Z</time>
      </trkpt>
      <trkpt lat="43.45385" lon="6.59423">
        <ele>232.3</ele>
        <time>2016-02-04T09:22:48Z</time>
      </trkpt>
      <trkpt lat="43.45385" lon="6.59422">
        <ele>231.33</ele>
        <time>2016-02-04T09:23:13Z</time>
      </trkpt>
      <trkpt lat="43.4539" lon="6.59423">
        <ele>231.33</ele>
        <time>2016-02-04T09:23:25Z</time>
      </trkpt>
      <trkpt lat="43.45391" lon="6.59423">
        <ele>231.33</ele>
        <time>2016-02-04T09:23:48Z</time>
      </trkpt>
      <trkpt lat="43.45391" lon="6.59419">
        <ele>232.3</ele>
        <time>2016-02-04T09:23:58Z</time>
      </trkpt>
      <trkpt lat="43.45385" lon="6.59414">
        <ele>230.85</ele>
        <time>2016-02-04T09:24:08Z</time>
      </trkpt>
      <trkpt lat="43.45381" lon="6.59412">
        <ele>229.89</ele>
        <time>2016-02-04T09:24:13Z</time>
      </trkpt>
      <trkpt lat="43.45379" lon="6.59411">
        <ele>229.89</ele>
        <time>2016-02-04T09:24:15Z</time>
      </trkpt>
      <trkpt lat="43.45373" lon="6.59405">
        <ele>229.89</ele>
        <time>2016-02-04T09:24:25Z</time>
      </trkpt>
      <trkpt lat="43.45363" lon="6.59401">
        <ele>227.49</ele>
        <time>2016-02-04T09:24:38Z</time>
      </trkpt>
      <trkpt lat="43.45357" lon="6.59401">
        <ele>225.09</ele>
        <time>2016-02-04T09:24:48Z</time>
      </trkpt>
      <trkpt lat="43.45351" lon="6.59402">
        <ele>224.12</ele>
        <time>2016-02-04T09:25:04Z</time>
      </trkpt>
      <trkpt lat="43.45344" lon="6.59402">
        <ele>223.64</ele>
        <time>2016-02-04T09:25:16Z</time>
      </trkpt>
      <trkpt lat="43.45341" lon="6.59403">
        <ele>223.64</ele>
        <time>2016-02-04T09:25:21Z</time>
      </trkpt>
      <trkpt lat="43.45329" lon="6.59407">
        <ele>223.64</ele>
        <time>2016-02-04T09:25:39Z</time>
      </trkpt>
      <trkpt lat="43.4532" lon="6.59408">
        <ele>223.64</ele>
        <time>2016-02-04T09:25:53Z</time>
      </trkpt>
      <trkpt lat="43.45311" lon="6.59415">
        <ele>223.16</ele>
        <time>2016-02-04T09:26:02Z</time>
      </trkpt>
      <trkpt lat="43.45299" lon="6.59411">
        <ele>224.12</ele>
        <time>2016-02-04T09:26:17Z</time>
      </trkpt>
      <trkpt lat="43.45279" lon="6.594">
        <ele>224.12</ele>
        <time>2016-02-04T09:26:33Z</time>
      </trkpt>
      <trkpt lat="43.45274" lon="6.59399">
        <ele>224.61</ele>
        <time>2016-02-04T09:26:38Z</time>
      </trkpt>
      <trkpt lat="43.45268" lon="6.59397">
        <ele>224.61</ele>
        <time>2016-02-04T09:26:42Z</time>
      </trkpt>
      <trkpt lat="43.45252" lon="6.59397">
        <ele>224.12</ele>
        <time>2016-02-04T09:26:55Z</time>
      </trkpt>
      <trkpt lat="43.45248" lon="6.59395">
        <ele>224.12</ele>
        <time>2016-02-04T09:26:58Z</time>
      </trkpt>
      <trkpt lat="43.45243" lon="6.59392">
        <ele>223.64</ele>
        <time>2016-02-04T09:27:02Z</time>
      </trkpt>
      <trkpt lat="43.45226" lon="6.59387">
        <ele>225.09</ele>
        <time>2016-02-04T09:27:16Z</time>
      </trkpt>
      <trkpt lat="43.45225" lon="6.59387">
        <ele>225.09</ele>
        <time>2016-02-04T09:27:17Z</time>
      </trkpt>
      <trkpt lat="43.45218" lon="6.59385">
        <ele>223.64</ele>
        <time>2016-02-04T09:27:27Z</time>
      </trkpt>
      <trkpt lat="43.45212" lon="6.59382">
        <ele>223.16</ele>
        <time>2016-02-04T09:27:32Z</time>
      </trkpt>
      <trkpt lat="43.45205" lon="6.59378">
        <ele>222.68</ele>
        <time>2016-02-04T09:27:37Z</time>
      </trkpt>
      <trkpt lat="43.45202" lon="6.59376">
        <ele>222.2</ele>
        <time>2016-02-04T09:27:39Z</time>
      </trkpt>
      <trkpt lat="43.45196" lon="6.59371">
        <ele>221.72</ele>
        <time>2016-02-04T09:27:44Z</time>
      </trkpt>
      <trkpt lat="43.45187" lon="6.5937">
        <ele>221.24</ele>
        <time>2016-02-04T09:27:50Z</time>
      </trkpt>
      <trkpt lat="43.45181" lon="6.59368">
        <ele>221.24</ele>
        <time>2016-02-04T09:27:54Z</time>
      </trkpt>
      <trkpt lat="43.45172" lon="6.59364">
        <ele>220.28</ele>
        <time>2016-02-04T09:28:00Z</time>
      </trkpt>
      <trkpt lat="43.45162" lon="6.59365">
        <ele>220.28</ele>
        <time>2016-02-04T09:28:07Z</time>
      </trkpt>
      <trkpt lat="43.45147" lon="6.59373">
        <ele>223.64</ele>
        <time>2016-02-04T09:28:19Z</time>
      </trkpt>
      <trkpt lat="43.45136" lon="6.59377">
        <ele>225.09</ele>
        <time>2016-02-04T09:28:29Z</time>
      </trkpt>
      <trkpt lat="43.45129" lon="6.59376">
        <ele>225.09</ele>
        <time>2016-02-04T09:28:34Z</time>
      </trkpt>
      <trkpt lat="43.45126" lon="6.59373">
        <ele>224.12</ele>
        <time>2016-02-04T09:28:38Z</time>
      </trkpt>
      <trkpt lat="43.45123" lon="6.59362">
        <ele>223.64</ele>
        <time>2016-02-04T09:28:45Z</time>
      </trkpt>
      <trkpt lat="43.45107" lon="6.59359">
        <ele>224.12</ele>
        <time>2016-02-04T09:28:58Z</time>
      </trkpt>
      <trkpt lat="43.45101" lon="6.59357">
        <ele>224.12</ele>
        <time>2016-02-04T09:29:03Z</time>
      </trkpt>
      <trkpt lat="43.45094" lon="6.59357">
        <ele>224.61</ele>
        <time>2016-02-04T09:29:08Z</time>
      </trkpt>
      <trkpt lat="43.45077" lon="6.59355">
        <ele>225.57</ele>
        <time>2016-02-04T09:29:21Z</time>
      </trkpt>
      <trkpt lat="43.4506" lon="6.59355">
        <ele>223.64</ele>
        <time>2016-02-04T09:29:35Z</time>
      </trkpt>
      <trkpt lat="43.45059" lon="6.59354">
        <ele>223.64</ele>
        <time>2016-02-04T09:29:37Z</time>
      </trkpt>
      <trkpt lat="43.45046" lon="6.59357">
        <ele>221.24</ele>
        <time>2016-02-04T09:29:49Z</time>
      </trkpt>
      <trkpt lat="43.45046" lon="6.59357">
        <ele>221.24</ele>
        <time>2016-02-04T09:29:52Z</time>
      </trkpt>
      <trkpt lat="43.45042" lon="6.59356">
        <ele>220.76</ele>
        <time>2016-02-04T09:29:55Z</time>
      </trkpt>
      <trkpt lat="43.45034" lon="6.59356">
        <ele>218.84</ele>
        <time>2016-02-04T09:30:05Z</time>
      </trkpt>
      <trkpt lat="43.45033" lon="6.59356">
        <ele>218.36</ele>
        <time>2016-02-04T09:30:07Z</time>
      </trkpt>
      <trkpt lat="43.45027" lon="6.59354">
        <ele>216.91</ele>
        <time>2016-02-04T09:30:13Z</time>
      </trkpt>
      <trkpt lat="43.45021" lon="6.59355">
        <ele>214.03</ele>
        <time>2016-02-04T09:30:23Z</time>
      </trkpt>
      <trkpt lat="43.45015" lon="6.59356">
        <ele>212.59</ele>
        <time>2016-02-04T09:30:36Z</time>
      </trkpt>
      <trkpt lat="43.45005" lon="6.5935">
        <ele>210.19</ele>
        <time>2016-02-04T09:30:50Z</time>
      </trkpt>
      <trkpt lat="43.44998" lon="6.59342">
        <ele>207.78</ele>
        <time>2016-02-04T09:31:02Z</time>
      </trkpt>
      <trkpt lat="43.44996" lon="6.59342">
        <ele>207.3</ele>
        <time>2016-02-04T09:31:04Z</time>
      </trkpt>
      <trkpt lat="43.44992" lon="6.59339">
        <ele>206.82</ele>
        <time>2016-02-04T09:31:12Z</time>
      </trkpt>
      <trkpt lat="43.44992" lon="6.59335">
        <ele>206.82</ele>
        <time>2016-02-04T09:31:15Z</time>
      </trkpt>
      <trkpt lat="43.44985" lon="6.59325">
        <ele>206.34</ele>
        <time>2016-02-04T09:31:27Z</time>
      </trkpt>
      <trkpt lat="43.44979" lon="6.59319">
        <ele>204.42</ele>
        <time>2016-02-04T09:31:39Z</time>
      </trkpt>
      <trkpt lat="43.44976" lon="6.5932">
        <ele>204.42</ele>
        <time>2016-02-04T09:31:50Z</time>
      </trkpt>
      <trkpt lat="43.44969" lon="6.59321">
        <ele>202.49</ele>
        <time>2016-02-04T09:32:02Z</time>
      </trkpt>
      <trkpt lat="43.44967" lon="6.59322">
        <ele>201.53</ele>
        <time>2016-02-04T09:32:04Z</time>
      </trkpt>
      <trkpt lat="43.44959" lon="6.59323">
        <ele>200.09</ele>
        <time>2016-02-04T09:32:18Z</time>
      </trkpt>
      <trkpt lat="43.44957" lon="6.59315">
        <ele>199.61</ele>
        <time>2016-02-04T09:32:26Z</time>
      </trkpt>
      <trkpt lat="43.44952" lon="6.59306">
        <ele>198.17</ele>
        <time>2016-02-04T09:32:38Z</time>
      </trkpt>
      <trkpt lat="43.44945" lon="6.59305">
        <ele>198.17</ele>
        <time>2016-02-04T09:32:50Z</time>
      </trkpt>
      <trkpt lat="43.44944" lon="6.59305">
        <ele>196.73</ele>
        <time>2016-02-04T09:33:06Z</time>
      </trkpt>
      <trkpt lat="43.44938" lon="6.59308">
        <ele>195.28</ele>
        <time>2016-02-04T09:33:13Z</time>
      </trkpt>
      <trkpt lat="43.4493" lon="6.59307">
        <ele>194.8</ele>
        <time>2016-02-04T09:33:20Z</time>
      </trkpt>
      <trkpt lat="43.44924" lon="6.59306">
        <ele>192.88</ele>
        <time>2016-02-04T09:33:27Z</time>
      </trkpt>
      <trkpt lat="43.44919" lon="6.59307">
        <ele>192.88</ele>
        <time>2016-02-04T09:33:30Z</time>
      </trkpt>
      <trkpt lat="43.4491" lon="6.59322">
        <ele>192.4</ele>
        <time>2016-02-04T09:33:40Z</time>
      </trkpt>
      <trkpt lat="43.44909" lon="6.59326">
        <ele>192.4</ele>
        <time>2016-02-04T09:33:42Z</time>
      </trkpt>
      <trkpt lat="43.44901" lon="6.59333">
        <ele>190.96</ele>
        <time>2016-02-04T09:33:51Z</time>
      </trkpt>
      <trkpt lat="43.44892" lon="6.59343">
        <ele>190.96</ele>
        <time>2016-02-04T09:34:03Z</time>
      </trkpt>
      <trkpt lat="43.44878" lon="6.59361">
        <ele>191.92</ele>
        <time>2016-02-04T09:34:17Z</time>
      </trkpt>
      <trkpt lat="43.44873" lon="6.59367">
        <ele>191.92</ele>
        <time>2016-02-04T09:34:22Z</time>
      </trkpt>
      <trkpt lat="43.44871" lon="6.59369">
        <ele>192.88</ele>
        <time>2016-02-04T09:34:25Z</time>
      </trkpt>
      <trkpt lat="43.44868" lon="6.59373">
        <ele>193.36</ele>
        <time>2016-02-04T09:34:28Z</time>
      </trkpt>
      <trkpt lat="43.4486" lon="6.59382">
        <ele>194.32</ele>
        <time>2016-02-04T09:34:37Z</time>
      </trkpt>
      <trkpt lat="43.44852" lon="6.59384">
        <ele>193.84</ele>
        <time>2016-02-04T09:34:44Z</time>
      </trkpt>
      <trkpt lat="43.44841" lon="6.59385">
        <ele>194.8</ele>
        <time>2016-02-04T09:34:53Z</time>
      </trkpt>
      <trkpt lat="43.44825" lon="6.59408">
        <ele>193.36</ele>
        <time>2016-02-04T09:35:09Z</time>
      </trkpt>
      <trkpt lat="43.44823" lon="6.59409">
        <ele>193.36</ele>
        <time>2016-02-04T09:35:11Z</time>
      </trkpt>
      <trkpt lat="43.44808" lon="6.59422">
        <ele>193.36</ele>
        <time>2016-02-04T09:35:25Z</time>
      </trkpt>
      <trkpt lat="43.44797" lon="6.59434">
        <ele>192.88</ele>
        <time>2016-02-04T09:35:37Z</time>
      </trkpt>
      <trkpt lat="43.44793" lon="6.59439">
        <ele>192.4</ele>
        <time>2016-02-04T09:35:41Z</time>
      </trkpt>
      <trkpt lat="43.44791" lon="6.59443">
        <ele>191.92</ele>
        <time>2016-02-04T09:35:43Z</time>
      </trkpt>
      <trkpt lat="43.44776" lon="6.59461">
        <ele>190.48</ele>
        <time>2016-02-04T09:35:58Z</time>
      </trkpt>
      <trkpt lat="43.44759" lon="6.59468">
        <ele>189.52</ele>
        <time>2016-02-04T09:36:10Z</time>
      </trkpt>
      <trkpt lat="43.44744" lon="6.59467">
        <ele>187.59</ele>
        <time>2016-02-04T09:36:24Z</time>
      </trkpt>
      <trkpt lat="43.44741" lon="6.5947">
        <ele>187.11</ele>
        <time>2016-02-04T09:36:27Z</time>
      </trkpt>
      <trkpt lat="43.4473" lon="6.59479">
        <ele>186.63</ele>
        <time>2016-02-04T09:36:35Z</time>
      </trkpt>
      <trkpt lat="43.44722" lon="6.59487">
        <ele>186.15</ele>
        <time>2016-02-04T09:36:40Z</time>
      </trkpt>
      <trkpt lat="43.4471" lon="6.59509">
        <ele>185.67</ele>
        <time>2016-02-04T09:36:55Z</time>
      </trkpt>
      <trkpt lat="43.44698" lon="6.59531">
        <ele>184.71</ele>
        <time>2016-02-04T09:37:09Z</time>
      </trkpt>
      <trkpt lat="43.44695" lon="6.59535">
        <ele>184.71</ele>
        <time>2016-02-04T09:37:12Z</time>
      </trkpt>
      <trkpt lat="43.44684" lon="6.59555">
        <ele>184.71</ele>
        <time>2016-02-04T09:37:24Z</time>
      </trkpt>
      <trkpt lat="43.44677" lon="6.59574">
        <ele>184.23</ele>
        <time>2016-02-04T09:37:36Z</time>
      </trkpt>
      <trkpt lat="43.44676" lon="6.59586">
        <ele>184.23</ele>
        <time>2016-02-04T09:37:42Z</time>
      </trkpt>
      <trkpt lat="43.4468" lon="6.59614">
        <ele>182.31</ele>
        <time>2016-02-04T09:37:57Z</time>
      </trkpt>
      <trkpt lat="43.44683" lon="6.59626">
        <ele>180.87</ele>
        <time>2016-02-04T09:38:05Z</time>
      </trkpt>
      <trkpt lat="43.44684" lon="6.59639">
        <ele>179.9</ele>
        <time>2016-02-04T09:38:13Z</time>
      </trkpt>
      <trkpt lat="43.44687" lon="6.5965">
        <ele>178.94</ele>
        <time>2016-02-04T09:38:20Z</time>
      </trkpt>
      <trkpt lat="43.44696" lon="6.59658">
        <ele>178.46</ele>
        <time>2016-02-04T09:38:33Z</time>
      </trkpt>
      <trkpt lat="43.4471" lon="6.59659">
        <ele>176.06</ele>
        <time>2016-02-04T09:38:45Z</time>
      </trkpt>
      <trkpt lat="43.44717" lon="6.59658">
        <ele>176.06</ele>
        <time>2016-02-04T09:38:50Z</time>
      </trkpt>
      <trkpt lat="43.4472" lon="6.59662">
        <ele>176.06</ele>
        <time>2016-02-04T09:38:55Z</time>
      </trkpt>
      <trkpt lat="43.44721" lon="6.59671">
        <ele>176.54</ele>
        <time>2016-02-04T09:39:01Z</time>
      </trkpt>
      <trkpt lat="43.44722" lon="6.59677">
        <ele>177.02</ele>
        <time>2016-02-04T09:39:06Z</time>
      </trkpt>
      <trkpt lat="43.44725" lon="6.59693">
        <ele>177.98</ele>
        <time>2016-02-04T09:39:17Z</time>
      </trkpt>
      <trkpt lat="43.44727" lon="6.597">
        <ele>178.46</ele>
        <time>2016-02-04T09:39:22Z</time>
      </trkpt>
      <trkpt lat="43.44729" lon="6.59706">
        <ele>177.5</ele>
        <time>2016-02-04T09:39:26Z</time>
      </trkpt>
      <trkpt lat="43.44734" lon="6.59716">
        <ele>177.5</ele>
        <time>2016-02-04T09:39:32Z</time>
      </trkpt>
      <trkpt lat="43.44736" lon="6.59724">
        <ele>177.5</ele>
        <time>2016-02-04T09:39:37Z</time>
      </trkpt>
      <trkpt lat="43.44735" lon="6.59749">
        <ele>176.54</ele>
        <time>2016-02-04T09:39:52Z</time>
      </trkpt>
      <trkpt lat="43.44737" lon="6.59775">
        <ele>175.58</ele>
        <time>2016-02-04T09:40:08Z</time>
      </trkpt>
      <trkpt lat="43.44737" lon="6.59779">
        <ele>175.58</ele>
        <time>2016-02-04T09:40:10Z</time>
      </trkpt>
      <trkpt lat="43.44739" lon="6.598">
        <ele>175.1</ele>
        <time>2016-02-04T09:40:23Z</time>
      </trkpt>
      <trkpt lat="43.44738" lon="6.59809">
        <ele>174.62</ele>
        <time>2016-02-04T09:40:30Z</time>
      </trkpt>
      <trkpt lat="43.4473" lon="6.59818">
        <ele>174.62</ele>
        <time>2016-02-04T09:40:41Z</time>
      </trkpt>
      <trkpt lat="43.44723" lon="6.59818">
        <ele>174.62</ele>
        <time>2016-02-04T09:40:47Z</time>
      </trkpt>
      <trkpt lat="43.4472" lon="6.59816">
        <ele>174.14</ele>
        <time>2016-02-04T09:40:59Z</time>
      </trkpt>
      <trkpt lat="43.4472" lon="6.59816">
        <ele>174.62</ele>
        <time>2016-02-04T09:41:06Z</time>
      </trkpt>
      <trkpt lat="43.44715" lon="6.59809">
        <ele>173.66</ele>
        <time>2016-02-04T09:41:19Z</time>
      </trkpt>
      <trkpt lat="43.44713" lon="6.59805">
        <ele>174.14</ele>
        <time>2016-02-04T09:41:26Z</time>
      </trkpt>
      <trkpt lat="43.44711" lon="6.59801">
        <ele>174.14</ele>
        <time>2016-02-04T09:41:29Z</time>
      </trkpt>
      <trkpt lat="43.4471" lon="6.59789">
        <ele>173.17</ele>
        <time>2016-02-04T09:41:37Z</time>
      </trkpt>
      <trkpt lat="43.447" lon="6.59776">
        <ele>172.21</ele>
        <time>2016-02-04T09:41:50Z</time>
      </trkpt>
      <trkpt lat="43.44691" lon="6.59774">
        <ele>171.25</ele>
        <time>2016-02-04T09:41:57Z</time>
      </trkpt>
      <trkpt lat="43.44674" lon="6.59781">
        <ele>169.81</ele>
        <time>2016-02-04T09:42:11Z</time>
      </trkpt>
      <trkpt lat="43.44661" lon="6.59792">
        <ele>168.37</ele>
        <time>2016-02-04T09:42:23Z</time>
      </trkpt>
      <trkpt lat="43.44648" lon="6.59805">
        <ele>168.85</ele>
        <time>2016-02-04T09:42:36Z</time>
      </trkpt>
      <trkpt lat="43.44647" lon="6.59806">
        <ele>169.33</ele>
        <time>2016-02-04T09:42:38Z</time>
      </trkpt>
      <trkpt lat="43.44637" lon="6.5981">
        <ele>170.77</ele>
        <time>2016-02-04T09:42:47Z</time>
      </trkpt>
      <trkpt lat="43.4462" lon="6.59815">
        <ele>169.33</ele>
        <time>2016-02-04T09:43:02Z</time>
      </trkpt>
      <trkpt lat="43.44618" lon="6.59816">
        <ele>169.33</ele>
        <time>2016-02-04T09:43:04Z</time>
      </trkpt>
      <trkpt lat="43.44611" lon="6.59817">
        <ele>168.37</ele>
        <time>2016-02-04T09:43:10Z</time>
      </trkpt>
      <trkpt lat="43.44596" lon="6.5982">
        <ele>166.45</ele>
        <time>2016-02-04T09:43:24Z</time>
      </trkpt>
      <trkpt lat="43.44592" lon="6.59819">
        <ele>165.96</ele>
        <time>2016-02-04T09:43:28Z</time>
      </trkpt>
      <trkpt lat="43.44586" lon="6.59817">
        <ele>165.48</ele>
        <time>2016-02-04T09:43:34Z</time>
      </trkpt>
      <trkpt lat="43.44574" lon="6.59812">
        <ele>164.04</ele>
        <time>2016-02-04T09:43:46Z</time>
      </trkpt>
      <trkpt lat="43.44568" lon="6.5981">
        <ele>162.6</ele>
        <time>2016-02-04T09:43:52Z</time>
      </trkpt>
      <trkpt lat="43.44564" lon="6.59805">
        <ele>160.68</ele>
        <time>2016-02-04T09:43:58Z</time>
      </trkpt>
      <trkpt lat="43.44558" lon="6.59804">
        <ele>160.68</ele>
        <time>2016-02-04T09:44:02Z</time>
      </trkpt>
      <trkpt lat="43.44549" lon="6.598">
        <ele>157.79</ele>
        <time>2016-02-04T09:44:14Z</time>
      </trkpt>
      <trkpt lat="43.44543" lon="6.59801">
        <ele>157.31</ele>
        <time>2016-02-04T09:44:19Z</time>
      </trkpt>
      <trkpt lat="43.44538" lon="6.59806">
        <ele>157.31</ele>
        <time>2016-02-04T09:44:27Z</time>
      </trkpt>
      <trkpt lat="43.44534" lon="6.59808">
        <ele>156.83</ele>
        <time>2016-02-04T09:44:32Z</time>
      </trkpt>
      <trkpt lat="43.44531" lon="6.5981">
        <ele>156.83</ele>
        <time>2016-02-04T09:44:35Z</time>
      </trkpt>
      <trkpt lat="43.4452" lon="6.59815">
        <ele>156.35</ele>
        <time>2016-02-04T09:44:45Z</time>
      </trkpt>
      <trkpt lat="43.44505" lon="6.59827">
        <ele>154.91</ele>
        <time>2016-02-04T09:44:59Z</time>
      </trkpt>
      <trkpt lat="43.445" lon="6.59828">
        <ele>154.43</ele>
        <time>2016-02-04T09:45:03Z</time>
      </trkpt>
      <trkpt lat="43.44497" lon="6.59828">
        <ele>153.47</ele>
        <time>2016-02-04T09:45:06Z</time>
      </trkpt>
      <trkpt lat="43.44492" lon="6.59828">
        <ele>153.47</ele>
        <time>2016-02-04T09:45:11Z</time>
      </trkpt>
      <trkpt lat="43.44474" lon="6.5983">
        <ele>151.06</ele>
        <time>2016-02-04T09:45:27Z</time>
      </trkpt>
      <trkpt lat="43.44467" lon="6.59834">
        <ele>150.1</ele>
        <time>2016-02-04T09:45:37Z</time>
      </trkpt>
      <trkpt lat="43.4446" lon="6.59839">
        <ele>147.7</ele>
        <time>2016-02-04T09:45:53Z</time>
      </trkpt>
      <trkpt lat="43.44455" lon="6.59845">
        <ele>147.22</ele>
        <time>2016-02-04T09:46:05Z</time>
      </trkpt>
      <trkpt lat="43.44454" lon="6.59846">
        <ele>147.7</ele>
        <time>2016-02-04T09:46:06Z</time>
      </trkpt>
      <trkpt lat="43.4445" lon="6.59854">
        <ele>147.22</ele>
        <time>2016-02-04T09:46:12Z</time>
      </trkpt>
      <trkpt lat="43.4445" lon="6.59863">
        <ele>147.22</ele>
        <time>2016-02-04T09:46:24Z</time>
      </trkpt>
      <trkpt lat="43.4445" lon="6.59864">
        <ele>146.74</ele>
        <time>2016-02-04T09:46:42Z</time>
      </trkpt>
      <trkpt lat="43.4445" lon="6.59867">
        <ele>146.74</ele>
        <time>2016-02-04T09:46:57Z</time>
      </trkpt>
      <trkpt lat="43.44449" lon="6.59866">
        <ele>146.74</ele>
        <time>2016-02-04T09:47:20Z</time>
      </trkpt>
      <trkpt lat="43.44449" lon="6.59867">
        <ele>146.26</ele>
        <time>2016-02-04T09:47:38Z</time>
      </trkpt>
      <trkpt lat="43.44447" lon="6.59877">
        <ele>145.3</ele>
        <time>2016-02-04T09:47:51Z</time>
      </trkpt>
      <trkpt lat="43.44445" lon="6.59881">
        <ele>145.3</ele>
        <time>2016-02-04T09:47:54Z</time>
      </trkpt>
      <trkpt lat="43.44436" lon="6.59886">
        <ele>144.34</ele>
        <time>2016-02-04T09:48:04Z</time>
      </trkpt>
      <trkpt lat="43.44429" lon="6.59897">
        <ele>144.34</ele>
        <time>2016-02-04T09:48:14Z</time>
      </trkpt>
      <trkpt lat="43.44427" lon="6.59906">
        <ele>144.34</ele>
        <time>2016-02-04T09:48:29Z</time>
      </trkpt>
      <trkpt lat="43.44423" lon="6.59918">
        <ele>144.34</ele>
        <time>2016-02-04T09:48:40Z</time>
      </trkpt>
      <trkpt lat="43.44422" lon="6.59924">
        <ele>143.85</ele>
        <time>2016-02-04T09:48:44Z</time>
      </trkpt>
      <trkpt lat="43.4441" lon="6.5994">
        <ele>142.89</ele>
        <time>2016-02-04T09:48:58Z</time>
      </trkpt>
      <trkpt lat="43.44402" lon="6.59959">
        <ele>143.37</ele>
        <time>2016-02-04T09:49:10Z</time>
      </trkpt>
      <trkpt lat="43.44396" lon="6.59961">
        <ele>141.93</ele>
        <time>2016-02-04T09:49:17Z</time>
      </trkpt>
      <trkpt lat="43.44393" lon="6.59963">
        <ele>140.97</ele>
        <time>2016-02-04T09:49:20Z</time>
      </trkpt>
      <trkpt lat="43.4439" lon="6.5996">
        <ele>140.01</ele>
        <time>2016-02-04T09:49:31Z</time>
      </trkpt>
      <trkpt lat="43.44389" lon="6.59961">
        <ele>140.01</ele>
        <time>2016-02-04T09:49:46Z</time>
      </trkpt>
      <trkpt lat="43.44387" lon="6.59959">
        <ele>139.53</ele>
        <time>2016-02-04T09:50:00Z</time>
      </trkpt>
      <trkpt lat="43.44386" lon="6.59959">
        <ele>139.53</ele>
        <time>2016-02-04T09:50:21Z</time>
      </trkpt>
      <trkpt lat="43.44387" lon="6.59959">
        <ele>139.05</ele>
        <time>2016-02-04T09:50:22Z</time>
      </trkpt>
      <trkpt lat="43.44391" lon="6.59961">
        <ele>140.49</ele>
        <time>2016-02-04T09:50:32Z</time>
      </trkpt>
      <trkpt lat="43.44393" lon="6.59967">
        <ele>140.97</ele>
        <time>2016-02-04T09:50:38Z</time>
      </trkpt>
      <trkpt lat="43.44388" lon="6.59967">
        <ele>139.05</ele>
        <time>2016-02-04T09:50:42Z</time>
      </trkpt>
      <trkpt lat="43.44382" lon="6.59981">
        <ele>138.57</ele>
        <time>2016-02-04T09:50:57Z</time>
      </trkpt>
      <trkpt lat="43.44382" lon="6.59982">
        <ele>138.57</ele>
        <time>2016-02-04T09:50:58Z</time>
      </trkpt>
      <trkpt lat="43.44381" lon="6.59995">
        <ele>136.16</ele>
        <time>2016-02-04T09:51:09Z</time>
      </trkpt>
      <trkpt lat="43.44375" lon="6.60003">
        <ele>133.28</ele>
        <time>2016-02-04T09:51:19Z</time>
      </trkpt>
      <trkpt lat="43.44374" lon="6.60005">
        <ele>132.8</ele>
        <time>2016-02-04T09:51:21Z</time>
      </trkpt>
      <trkpt lat="43.44373" lon="6.60008">
        <ele>132.8</ele>
        <time>2016-02-04T09:51:23Z</time>
      </trkpt>
      <trkpt lat="43.44368" lon="6.60026">
        <ele>131.36</ele>
        <time>2016-02-04T09:51:36Z</time>
      </trkpt>
      <trkpt lat="43.44368" lon="6.60029">
        <ele>130.4</ele>
        <time>2016-02-04T09:51:38Z</time>
      </trkpt>
      <trkpt lat="43.44368" lon="6.60033">
        <ele>129.92</ele>
        <time>2016-02-04T09:51:41Z</time>
      </trkpt>
      <trkpt lat="43.44367" lon="6.60043">
        <ele>128.95</ele>
        <time>2016-02-04T09:51:48Z</time>
      </trkpt>
      <trkpt lat="43.44365" lon="6.60048">
        <ele>127.99</ele>
        <time>2016-02-04T09:51:52Z</time>
      </trkpt>
      <trkpt lat="43.44364" lon="6.60057">
        <ele>128.47</ele>
        <time>2016-02-04T09:51:57Z</time>
      </trkpt>
      <trkpt lat="43.44365" lon="6.60068">
        <ele>127.99</ele>
        <time>2016-02-04T09:52:03Z</time>
      </trkpt>
      <trkpt lat="43.44365" lon="6.60074">
        <ele>127.51</ele>
        <time>2016-02-04T09:52:07Z</time>
      </trkpt>
      <trkpt lat="43.44362" lon="6.60082">
        <ele>126.55</ele>
        <time>2016-02-04T09:52:12Z</time>
      </trkpt>
      <trkpt lat="43.44355" lon="6.60099">
        <ele>125.11</ele>
        <time>2016-02-04T09:52:25Z</time>
      </trkpt>
      <trkpt lat="43.44351" lon="6.60107">
        <ele>124.15</ele>
        <time>2016-02-04T09:52:32Z</time>
      </trkpt>
      <trkpt lat="43.44348" lon="6.60109">
        <ele>124.63</ele>
        <time>2016-02-04T09:52:35Z</time>
      </trkpt>
      <trkpt lat="43.4434" lon="6.60111">
        <ele>124.15</ele>
        <time>2016-02-04T09:52:44Z</time>
      </trkpt>
      <trkpt lat="43.44337" lon="6.60113">
        <ele>124.63</ele>
        <time>2016-02-04T09:52:47Z</time>
      </trkpt>
      <trkpt lat="43.44326" lon="6.60124">
        <ele>126.07</ele>
        <time>2016-02-04T09:53:01Z</time>
      </trkpt>
      <trkpt lat="43.44315" lon="6.60133">
        <ele>125.11</ele>
        <time>2016-02-04T09:53:15Z</time>
      </trkpt>
      <trkpt lat="43.44305" lon="6.60139">
        <ele>123.19</ele>
        <time>2016-02-04T09:53:32Z</time>
      </trkpt>
      <trkpt lat="43.44303" lon="6.6014">
        <ele>122.71</ele>
        <time>2016-02-04T09:53:36Z</time>
      </trkpt>
      <trkpt lat="43.443" lon="6.60141">
        <ele>122.22</ele>
        <time>2016-02-04T09:53:39Z</time>
      </trkpt>
      <trkpt lat="43.4429" lon="6.60145">
        <ele>119.34</ele>
        <time>2016-02-04T09:53:50Z</time>
      </trkpt>
      <trkpt lat="43.44292" lon="6.60138">
        <ele>120.3</ele>
        <time>2016-02-04T09:54:00Z</time>
      </trkpt>
      <trkpt lat="43.44293" lon="6.60138">
        <ele>121.26</ele>
        <time>2016-02-04T09:54:12Z</time>
      </trkpt>
      <trkpt lat="43.44294" lon="6.60138">
        <ele>120.78</ele>
        <time>2016-02-04T09:54:30Z</time>
      </trkpt>
      <trkpt lat="43.44294" lon="6.60135">
        <ele>120.78</ele>
        <time>2016-02-04T09:54:53Z</time>
      </trkpt>
      <trkpt lat="43.44294" lon="6.60135">
        <ele>120.78</ele>
        <time>2016-02-04T09:55:19Z</time>
      </trkpt>
      <trkpt lat="43.44293" lon="6.60134">
        <ele>120.3</ele>
        <time>2016-02-04T09:55:33Z</time>
      </trkpt>
      <trkpt lat="43.44291" lon="6.60122">
        <ele>119.34</ele>
        <time>2016-02-04T09:55:46Z</time>
      </trkpt>
      <trkpt lat="43.4429" lon="6.60124">
        <ele>119.82</ele>
        <time>2016-02-04T09:55:50Z</time>
      </trkpt>
      <trkpt lat="43.44293" lon="6.60132">
        <ele>120.3</ele>
        <time>2016-02-04T09:56:03Z</time>
      </trkpt>
      <trkpt lat="43.44294" lon="6.60131">
        <ele>120.78</ele>
        <time>2016-02-04T09:56:26Z</time>
      </trkpt>
      <trkpt lat="43.44293" lon="6.60133">
        <ele>120.3</ele>
        <time>2016-02-04T09:56:41Z</time>
      </trkpt>
      <trkpt lat="43.44292" lon="6.60136">
        <ele>120.3</ele>
        <time>2016-02-04T09:57:00Z</time>
      </trkpt>
      <trkpt lat="43.44292" lon="6.60136">
        <ele>120.78</ele>
        <time>2016-02-04T09:57:01Z</time>
      </trkpt>
      <trkpt lat="43.44293" lon="6.60142">
        <ele>120.78</ele>
        <time>2016-02-04T09:57:16Z</time>
      </trkpt>
      <trkpt lat="43.44292" lon="6.60137">
        <ele>120.78</ele>
        <time>2016-02-04T09:57:34Z</time>
      </trkpt>
      <trkpt lat="43.44293" lon="6.60138">
        <ele>120.3</ele>
        <time>2016-02-04T09:57:45Z</time>
      </trkpt>
      <trkpt lat="43.44294" lon="6.60144">
        <ele>121.26</ele>
        <time>2016-02-04T09:58:00Z</time>
      </trkpt>
      <trkpt lat="43.44293" lon="6.60145">
        <ele>121.26</ele>
        <time>2016-02-04T09:58:18Z</time>
      </trkpt>
      <trkpt lat="43.4429" lon="6.60146">
        <ele>120.78</ele>
        <time>2016-02-04T09:58:20Z</time>
      </trkpt>
      <trkpt lat="43.44287" lon="6.60148">
        <ele>119.82</ele>
        <time>2016-02-04T09:58:23Z</time>
      </trkpt>
      <trkpt lat="43.44284" lon="6.60152">
        <ele>119.82</ele>
        <time>2016-02-04T09:58:38Z</time>
      </trkpt>
      <trkpt lat="43.44284" lon="6.60154">
        <ele>119.82</ele>
        <time>2016-02-04T09:59:06Z</time>
      </trkpt>
      <trkpt lat="43.44285" lon="6.60154">
        <ele>120.3</ele>
        <time>2016-02-04T09:59:36Z</time>
      </trkpt>
      <trkpt lat="43.44285" lon="6.60153">
        <ele>119.82</ele>
        <time>2016-02-04T09:59:39Z</time>
      </trkpt>
      <trkpt lat="43.4428" lon="6.60154">
        <ele>118.86</ele>
        <time>2016-02-04T09:59:45Z</time>
      </trkpt>
      <trkpt lat="43.44272" lon="6.60163">
        <ele>118.86</ele>
        <time>2016-02-04T09:59:52Z</time>
      </trkpt>
      <trkpt lat="43.4427" lon="6.60166">
        <ele>118.86</ele>
        <time>2016-02-04T09:59:54Z</time>
      </trkpt>
      <trkpt lat="43.44267" lon="6.60171">
        <ele>118.38</ele>
        <time>2016-02-04T09:59:58Z</time>
      </trkpt>
      <trkpt lat="43.4426" lon="6.60186">
        <ele>116.46</ele>
        <time>2016-02-04T10:00:10Z</time>
      </trkpt>
      <trkpt lat="43.44258" lon="6.60193">
        <ele>116.46</ele>
        <time>2016-02-04T10:00:26Z</time>
      </trkpt>
      <trkpt lat="43.44259" lon="6.60194">
        <ele>115.98</ele>
        <time>2016-02-04T10:00:51Z</time>
      </trkpt>
      <trkpt lat="43.44259" lon="6.60195">
        <ele>116.46</ele>
        <time>2016-02-04T10:01:11Z</time>
      </trkpt>
      <trkpt lat="43.44259" lon="6.60197">
        <ele>115.98</ele>
        <time>2016-02-04T10:01:14Z</time>
      </trkpt>
      <trkpt lat="43.44258" lon="6.602">
        <ele>115.98</ele>
        <time>2016-02-04T10:01:16Z</time>
      </trkpt>
      <trkpt lat="43.44257" lon="6.60204">
        <ele>115.98</ele>
        <time>2016-02-04T10:01:19Z</time>
      </trkpt>
      <trkpt lat="43.44252" lon="6.60225">
        <ele>112.61</ele>
        <time>2016-02-04T10:01:34Z</time>
      </trkpt>
      <trkpt lat="43.44251" lon="6.60227">
        <ele>112.61</ele>
        <time>2016-02-04T10:01:36Z</time>
      </trkpt>
      <trkpt lat="43.44244" lon="6.60246">
        <ele>111.65</ele>
        <time>2016-02-04T10:01:48Z</time>
      </trkpt>
      <trkpt lat="43.44242" lon="6.60256">
        <ele>110.21</ele>
        <time>2016-02-04T10:01:56Z</time>
      </trkpt>
      <trkpt lat="43.44239" lon="6.60265">
        <ele>108.77</ele>
        <time>2016-02-04T10:02:09Z</time>
      </trkpt>
      <trkpt lat="43.44234" lon="6.60283">
        <ele>108.29</ele>
        <time>2016-02-04T10:02:24Z</time>
      </trkpt>
      <trkpt lat="43.44229" lon="6.60298">
        <ele>106.36</ele>
        <time>2016-02-04T10:02:39Z</time>
      </trkpt>
      <trkpt lat="43.44229" lon="6.60302">
        <ele>106.36</ele>
        <time>2016-02-04T10:02:41Z</time>
      </trkpt>
      <trkpt lat="43.4423" lon="6.6031">
        <ele>105.88</ele>
        <time>2016-02-04T10:02:44Z</time>
      </trkpt>
      <trkpt lat="43.4423" lon="6.60322">
        <ele>105.88</ele>
        <time>2016-02-04T10:02:50Z</time>
      </trkpt>
      <trkpt lat="43.44228" lon="6.60349">
        <ele>105.4</ele>
        <time>2016-02-04T10:03:05Z</time>
      </trkpt>
      <trkpt lat="43.44226" lon="6.60353">
        <ele>104.44</ele>
        <time>2016-02-04T10:03:08Z</time>
      </trkpt>
      <trkpt lat="43.44222" lon="6.60358">
        <ele>103.96</ele>
        <time>2016-02-04T10:03:13Z</time>
      </trkpt>
      <trkpt lat="43.44221" lon="6.60361">
        <ele>103.96</ele>
        <time>2016-02-04T10:03:15Z</time>
      </trkpt>
      <trkpt lat="43.4421" lon="6.60379">
        <ele>103.48</ele>
        <time>2016-02-04T10:03:28Z</time>
      </trkpt>
      <trkpt lat="43.44202" lon="6.60401">
        <ele>101.56</ele>
        <time>2016-02-04T10:03:41Z</time>
      </trkpt>
      <trkpt lat="43.44202" lon="6.60412">
        <ele>101.08</ele>
        <time>2016-02-04T10:03:49Z</time>
      </trkpt>
      <trkpt lat="43.44203" lon="6.60417">
        <ele>100.6</ele>
        <time>2016-02-04T10:03:52Z</time>
      </trkpt>
      <trkpt lat="43.44203" lon="6.60427">
        <ele>99.63</ele>
        <time>2016-02-04T10:03:59Z</time>
      </trkpt>
      <trkpt lat="43.44203" lon="6.60441">
        <ele>97.71</ele>
        <time>2016-02-04T10:04:07Z</time>
      </trkpt>
      <trkpt lat="43.44205" lon="6.60454">
        <ele>98.19</ele>
        <time>2016-02-04T10:04:14Z</time>
      </trkpt>
      <trkpt lat="43.44206" lon="6.60459">
        <ele>98.19</ele>
        <time>2016-02-04T10:04:16Z</time>
      </trkpt>
      <trkpt lat="43.44207" lon="6.60471">
        <ele>97.23</ele>
        <time>2016-02-04T10:04:22Z</time>
      </trkpt>
      <trkpt lat="43.44205" lon="6.60491">
        <ele>94.83</ele>
        <time>2016-02-04T10:04:35Z</time>
      </trkpt>
      <trkpt lat="43.44204" lon="6.60508">
        <ele>93.87</ele>
        <time>2016-02-04T10:04:46Z</time>
      </trkpt>
      <trkpt lat="43.44203" lon="6.6052">
        <ele>93.87</ele>
        <time>2016-02-04T10:04:52Z</time>
      </trkpt>
      <trkpt lat="43.44202" lon="6.60534">
        <ele>92.42</ele>
        <time>2016-02-04T10:04:59Z</time>
      </trkpt>
      <trkpt lat="43.44201" lon="6.60545">
        <ele>90.98</ele>
        <time>2016-02-04T10:05:05Z</time>
      </trkpt>
      <trkpt lat="43.44199" lon="6.60575">
        <ele>90.5</ele>
        <time>2016-02-04T10:05:20Z</time>
      </trkpt>
      <trkpt lat="43.44197" lon="6.60588">
        <ele>90.5</ele>
        <time>2016-02-04T10:05:27Z</time>
      </trkpt>
      <trkpt lat="43.44193" lon="6.60596">
        <ele>90.02</ele>
        <time>2016-02-04T10:05:34Z</time>
      </trkpt>
      <trkpt lat="43.44187" lon="6.60614">
        <ele>89.54</ele>
        <time>2016-02-04T10:05:47Z</time>
      </trkpt>
      <trkpt lat="43.44186" lon="6.6062">
        <ele>90.02</ele>
        <time>2016-02-04T10:05:53Z</time>
      </trkpt>
      <trkpt lat="43.4418" lon="6.60647">
        <ele>88.1</ele>
        <time>2016-02-04T10:06:07Z</time>
      </trkpt>
      <trkpt lat="43.44177" lon="6.60656">
        <ele>88.58</ele>
        <time>2016-02-04T10:06:11Z</time>
      </trkpt>
      <trkpt lat="43.44176" lon="6.60668">
        <ele>89.06</ele>
        <time>2016-02-04T10:06:17Z</time>
      </trkpt>
      <trkpt lat="43.44173" lon="6.60677">
        <ele>89.06</ele>
        <time>2016-02-04T10:06:22Z</time>
      </trkpt>
      <trkpt lat="43.44172" lon="6.6069">
        <ele>89.06</ele>
        <time>2016-02-04T10:06:28Z</time>
      </trkpt>
      <trkpt lat="43.44171" lon="6.60715">
        <ele>88.1</ele>
        <time>2016-02-04T10:06:40Z</time>
      </trkpt>
      <trkpt lat="43.44171" lon="6.60718">
        <ele>88.1</ele>
        <time>2016-02-04T10:06:41Z</time>
      </trkpt>
      <trkpt lat="43.44169" lon="6.60747">
        <ele>88.1</ele>
        <time>2016-02-04T10:06:55Z</time>
      </trkpt>
      <trkpt lat="43.44166" lon="6.60759">
        <ele>88.58</ele>
        <time>2016-02-04T10:07:02Z</time>
      </trkpt>
      <trkpt lat="43.44164" lon="6.60789">
        <ele>89.06</ele>
        <time>2016-02-04T10:07:18Z</time>
      </trkpt>
      <trkpt lat="43.44165" lon="6.60799">
        <ele>89.06</ele>
        <time>2016-02-04T10:07:24Z</time>
      </trkpt>
      <trkpt lat="43.44176" lon="6.60829">
        <ele>90.02</ele>
        <time>2016-02-04T10:07:38Z</time>
      </trkpt>
      <trkpt lat="43.44192" lon="6.60848">
        <ele>90.98</ele>
        <time>2016-02-04T10:07:53Z</time>
      </trkpt>
      <trkpt lat="43.44199" lon="6.60855">
        <ele>90.02</ele>
        <time>2016-02-04T10:08:00Z</time>
      </trkpt>
      <trkpt lat="43.44209" lon="6.60865">
        <ele>89.54</ele>
        <time>2016-02-04T10:08:07Z</time>
      </trkpt>
      <trkpt lat="43.44213" lon="6.60867">
        <ele>89.54</ele>
        <time>2016-02-04T10:08:10Z</time>
      </trkpt>
      <trkpt lat="43.44218" lon="6.60871">
        <ele>89.54</ele>
        <time>2016-02-04T10:08:14Z</time>
      </trkpt>
      <trkpt lat="43.44223" lon="6.60877">
        <ele>90.02</ele>
        <time>2016-02-04T10:08:19Z</time>
      </trkpt>
      <trkpt lat="43.44239" lon="6.60897">
        <ele>90.98</ele>
        <time>2016-02-04T10:08:34Z</time>
      </trkpt>
      <trkpt lat="43.44247" lon="6.60914">
        <ele>91.94</ele>
        <time>2016-02-04T10:08:45Z</time>
      </trkpt>
      <trkpt lat="43.44254" lon="6.60932">
        <ele>93.39</ele>
        <time>2016-02-04T10:08:56Z</time>
      </trkpt>
      <trkpt lat="43.44255" lon="6.60944">
        <ele>92.9</ele>
        <time>2016-02-04T10:09:03Z</time>
      </trkpt>
      <trkpt lat="43.44259" lon="6.60968">
        <ele>91.94</ele>
        <time>2016-02-04T10:09:16Z</time>
      </trkpt>
      <trkpt lat="43.44267" lon="6.60996">
        <ele>90.98</ele>
        <time>2016-02-04T10:09:30Z</time>
      </trkpt>
      <trkpt lat="43.44275" lon="6.61017">
        <ele>90.02</ele>
        <time>2016-02-04T10:09:43Z</time>
      </trkpt>
      <trkpt lat="43.4428" lon="6.6103">
        <ele>89.06</ele>
        <time>2016-02-04T10:09:50Z</time>
      </trkpt>
      <trkpt lat="43.4428" lon="6.61037">
        <ele>88.58</ele>
        <time>2016-02-04T10:09:55Z</time>
      </trkpt>
      <trkpt lat="43.44286" lon="6.61048">
        <ele>88.1</ele>
        <time>2016-02-04T10:10:03Z</time>
      </trkpt>
      <trkpt lat="43.44298" lon="6.61071">
        <ele>86.66</ele>
        <time>2016-02-04T10:10:17Z</time>
      </trkpt>
      <trkpt lat="43.44302" lon="6.61077">
        <ele>85.69</ele>
        <time>2016-02-04T10:10:21Z</time>
      </trkpt>
      <trkpt lat="43.44315" lon="6.61097">
        <ele>84.73</ele>
        <time>2016-02-04T10:10:35Z</time>
      </trkpt>
      <trkpt lat="43.44327" lon="6.61124">
        <ele>83.77</ele>
        <time>2016-02-04T10:10:51Z</time>
      </trkpt>
      <trkpt lat="43.44322" lon="6.61154">
        <ele>81.85</ele>
        <time>2016-02-04T10:11:08Z</time>
      </trkpt>
      <trkpt lat="43.44316" lon="6.61171">
        <ele>80.89</ele>
        <time>2016-02-04T10:11:18Z</time>
      </trkpt>
      <trkpt lat="43.44313" lon="6.6118">
        <ele>80.41</ele>
        <time>2016-02-04T10:11:24Z</time>
      </trkpt>
      <trkpt lat="43.44313" lon="6.61203">
        <ele>79.93</ele>
        <time>2016-02-04T10:11:35Z</time>
      </trkpt>
      <trkpt lat="43.44316" lon="6.61211">
        <ele>79.93</ele>
        <time>2016-02-04T10:11:39Z</time>
      </trkpt>
      <trkpt lat="43.44327" lon="6.61229">
        <ele>78</ele>
        <time>2016-02-04T10:11:52Z</time>
      </trkpt>
      <trkpt lat="43.4433" lon="6.61233">
        <ele>78</ele>
        <time>2016-02-04T10:11:55Z</time>
      </trkpt>
      <trkpt lat="43.44333" lon="6.61235">
        <ele>77.52</ele>
        <time>2016-02-04T10:11:58Z</time>
      </trkpt>
      <trkpt lat="43.44339" lon="6.61235">
        <ele>76.08</ele>
        <time>2016-02-04T10:12:03Z</time>
      </trkpt>
      <trkpt lat="43.44347" lon="6.61237">
        <ele>75.12</ele>
        <time>2016-02-04T10:12:08Z</time>
      </trkpt>
      <trkpt lat="43.44364" lon="6.61237">
        <ele>74.64</ele>
        <time>2016-02-04T10:12:20Z</time>
      </trkpt>
      <trkpt lat="43.44368" lon="6.61237">
        <ele>74.64</ele>
        <time>2016-02-04T10:12:23Z</time>
      </trkpt>
      <trkpt lat="43.44382" lon="6.61244">
        <ele>74.16</ele>
        <time>2016-02-04T10:12:35Z</time>
      </trkpt>
      <trkpt lat="43.44384" lon="6.61245">
        <ele>74.64</ele>
        <time>2016-02-04T10:12:37Z</time>
      </trkpt>
      <trkpt lat="43.44387" lon="6.61248">
        <ele>73.2</ele>
        <time>2016-02-04T10:12:40Z</time>
      </trkpt>
      <trkpt lat="43.44399" lon="6.61262">
        <ele>71.76</ele>
        <time>2016-02-04T10:12:53Z</time>
      </trkpt>
      <trkpt lat="43.44405" lon="6.61265">
        <ele>71.76</ele>
        <time>2016-02-04T10:13:01Z</time>
      </trkpt>
      <trkpt lat="43.44411" lon="6.61268">
        <ele>70.79</ele>
        <time>2016-02-04T10:13:05Z</time>
      </trkpt>
      <trkpt lat="43.44417" lon="6.61279">
        <ele>69.83</ele>
        <time>2016-02-04T10:13:14Z</time>
      </trkpt>
      <trkpt lat="43.44414" lon="6.61286">
        <ele>68.39</ele>
        <time>2016-02-04T10:13:20Z</time>
      </trkpt>
      <trkpt lat="43.44404" lon="6.613">
        <ele>65.99</ele>
        <time>2016-02-04T10:13:32Z</time>
      </trkpt>
      <trkpt lat="43.44401" lon="6.61307">
        <ele>65.99</ele>
        <time>2016-02-04T10:13:37Z</time>
      </trkpt>
      <trkpt lat="43.44402" lon="6.6132">
        <ele>65.03</ele>
        <time>2016-02-04T10:13:44Z</time>
      </trkpt>
      <trkpt lat="43.44402" lon="6.61337">
        <ele>62.62</ele>
        <time>2016-02-04T10:13:58Z</time>
      </trkpt>
      <trkpt lat="43.44397" lon="6.61345">
        <ele>62.14</ele>
        <time>2016-02-04T10:14:03Z</time>
      </trkpt>
      <trkpt lat="43.44392" lon="6.61351">
        <ele>61.66</ele>
        <time>2016-02-04T10:14:09Z</time>
      </trkpt>
      <trkpt lat="43.44378" lon="6.61344">
        <ele>60.7</ele>
        <time>2016-02-04T10:14:23Z</time>
      </trkpt>
      <trkpt lat="43.44375" lon="6.61337">
        <ele>59.26</ele>
        <time>2016-02-04T10:14:28Z</time>
      </trkpt>
      <trkpt lat="43.44364" lon="6.6133">
        <ele>58.3</ele>
        <time>2016-02-04T10:14:37Z</time>
      </trkpt>
      <trkpt lat="43.44353" lon="6.61344">
        <ele>55.41</ele>
        <time>2016-02-04T10:14:49Z</time>
      </trkpt>
      <trkpt lat="43.44349" lon="6.61348">
        <ele>55.89</ele>
        <time>2016-02-04T10:14:52Z</time>
      </trkpt>
      <trkpt lat="43.44346" lon="6.61356">
        <ele>54.93</ele>
        <time>2016-02-04T10:14:57Z</time>
      </trkpt>
      <trkpt lat="43.44356" lon="6.61382">
        <ele>53.49</ele>
        <time>2016-02-04T10:15:12Z</time>
      </trkpt>
      <trkpt lat="43.44356" lon="6.61382">
        <ele>53.49</ele>
        <time>2016-02-04T10:15:13Z</time>
      </trkpt>
      <trkpt lat="43.44367" lon="6.61395">
        <ele>52.53</ele>
        <time>2016-02-04T10:15:24Z</time>
      </trkpt>
      <trkpt lat="43.44372" lon="6.61398">
        <ele>51.57</ele>
        <time>2016-02-04T10:15:29Z</time>
      </trkpt>
      <trkpt lat="43.44376" lon="6.614">
        <ele>51.09</ele>
        <time>2016-02-04T10:15:33Z</time>
      </trkpt>
      <trkpt lat="43.44377" lon="6.61402">
        <ele>50.61</ele>
        <time>2016-02-04T10:15:35Z</time>
      </trkpt>
      <trkpt lat="43.44385" lon="6.61405">
        <ele>50.61</ele>
        <time>2016-02-04T10:15:40Z</time>
      </trkpt>
      <trkpt lat="43.44399" lon="6.61409">
        <ele>50.13</ele>
        <time>2016-02-04T10:15:52Z</time>
      </trkpt>
      <trkpt lat="43.44405" lon="6.6141">
        <ele>49.65</ele>
        <time>2016-02-04T10:15:58Z</time>
      </trkpt>
      <trkpt lat="43.44414" lon="6.61417">
        <ele>49.65</ele>
        <time>2016-02-04T10:16:09Z</time>
      </trkpt>
      <trkpt lat="43.44416" lon="6.61419">
        <ele>49.65</ele>
        <time>2016-02-04T10:16:11Z</time>
      </trkpt>
      <trkpt lat="43.44426" lon="6.61428">
        <ele>49.16</ele>
        <time>2016-02-04T10:16:19Z</time>
      </trkpt>
      <trkpt lat="43.44431" lon="6.61432">
        <ele>47.72</ele>
        <time>2016-02-04T10:16:24Z</time>
      </trkpt>
      <trkpt lat="43.44434" lon="6.61438">
        <ele>46.76</ele>
        <time>2016-02-04T10:16:30Z</time>
      </trkpt>
      <trkpt lat="43.44434" lon="6.61443">
        <ele>45.8</ele>
        <time>2016-02-04T10:16:35Z</time>
      </trkpt>
      <trkpt lat="43.44432" lon="6.61451">
        <ele>44.36</ele>
        <time>2016-02-04T10:16:40Z</time>
      </trkpt>
      <trkpt lat="43.44419" lon="6.61475">
        <ele>41.95</ele>
        <time>2016-02-04T10:16:58Z</time>
      </trkpt>
      <trkpt lat="43.44412" lon="6.61485">
        <ele>41.47</ele>
        <time>2016-02-04T10:17:05Z</time>
      </trkpt>
      <trkpt lat="43.44404" lon="6.61493">
        <ele>39.55</ele>
        <time>2016-02-04T10:17:15Z</time>
      </trkpt>
      <trkpt lat="43.44399" lon="6.61499">
        <ele>38.59</ele>
        <time>2016-02-04T10:17:20Z</time>
      </trkpt>
      <trkpt lat="43.44393" lon="6.61507">
        <ele>37.63</ele>
        <time>2016-02-04T10:17:26Z</time>
      </trkpt>
      <trkpt lat="43.44383" lon="6.61514">
        <ele>36.67</ele>
        <time>2016-02-04T10:17:34Z</time>
      </trkpt>
      <trkpt lat="43.44382" lon="6.61521">
        <ele>35.71</ele>
        <time>2016-02-04T10:17:38Z</time>
      </trkpt>
      <trkpt lat="43.44377" lon="6.61537">
        <ele>35.23</ele>
        <time>2016-02-04T10:17:48Z</time>
      </trkpt>
      <trkpt lat="43.44378" lon="6.6154">
        <ele>34.26</ele>
        <time>2016-02-04T10:17:50Z</time>
      </trkpt>
      <trkpt lat="43.44375" lon="6.61559">
        <ele>33.78</ele>
        <time>2016-02-04T10:18:02Z</time>
      </trkpt>
      <trkpt lat="43.44377" lon="6.61581">
        <ele>29.94</ele>
        <time>2016-02-04T10:18:14Z</time>
      </trkpt>
      <trkpt lat="43.44375" lon="6.61593">
        <ele>28.98</ele>
        <time>2016-02-04T10:18:21Z</time>
      </trkpt>
      <trkpt lat="43.44361" lon="6.61608">
        <ele>26.57</ele>
        <time>2016-02-04T10:18:35Z</time>
      </trkpt>
      <trkpt lat="43.44359" lon="6.6161">
        <ele>26.57</ele>
        <time>2016-02-04T10:18:38Z</time>
      </trkpt>
      <trkpt lat="43.44356" lon="6.61612">
        <ele>25.61</ele>
        <time>2016-02-04T10:18:40Z</time>
      </trkpt>
      <trkpt lat="43.44354" lon="6.61614">
        <ele>25.61</ele>
        <time>2016-02-04T10:18:43Z</time>
      </trkpt>
      <trkpt lat="43.44352" lon="6.61618">
        <ele>25.61</ele>
        <time>2016-02-04T10:18:46Z</time>
      </trkpt>
      <trkpt lat="43.44347" lon="6.61626">
        <ele>24.17</ele>
        <time>2016-02-04T10:18:53Z</time>
      </trkpt>
      <trkpt lat="43.44341" lon="6.61636">
        <ele>22.73</ele>
        <time>2016-02-04T10:19:00Z</time>
      </trkpt>
      <trkpt lat="43.44343" lon="6.61642">
        <ele>22.25</ele>
        <time>2016-02-04T10:19:03Z</time>
      </trkpt>
      <trkpt lat="43.44347" lon="6.61651">
        <ele>20.81</ele>
        <time>2016-02-04T10:19:11Z</time>
      </trkpt>
      <trkpt lat="43.44347" lon="6.61653">
        <ele>19.84</ele>
        <time>2016-02-04T10:19:13Z</time>
      </trkpt>
      <trkpt lat="43.44348" lon="6.6166">
        <ele>18.88</ele>
        <time>2016-02-04T10:19:20Z</time>
      </trkpt>
      <trkpt lat="43.44345" lon="6.61667">
        <ele>16.96</ele>
        <time>2016-02-04T10:19:29Z</time>
      </trkpt>
      <trkpt lat="43.44346" lon="6.61684">
        <ele>15.52</ele>
        <time>2016-02-04T10:19:42Z</time>
      </trkpt>
      <trkpt lat="43.44349" lon="6.61702">
        <ele>13.6</ele>
        <time>2016-02-04T10:19:53Z</time>
      </trkpt>
      <trkpt lat="43.44354" lon="6.61716">
        <ele>13.6</ele>
        <time>2016-02-04T10:20:01Z</time>
      </trkpt>
      <trkpt lat="43.4436" lon="6.61746">
        <ele>14.56</ele>
        <time>2016-02-04T10:20:16Z</time>
      </trkpt>
      <trkpt lat="43.44362" lon="6.61755">
        <ele>14.08</ele>
        <time>2016-02-04T10:20:21Z</time>
      </trkpt>
      <trkpt lat="43.44362" lon="6.61762">
        <ele>14.08</ele>
        <time>2016-02-04T10:20:25Z</time>
      </trkpt>
      <trkpt lat="43.44363" lon="6.6177">
        <ele>15.04</ele>
        <time>2016-02-04T10:20:29Z</time>
      </trkpt>
      <trkpt lat="43.44365" lon="6.61795">
        <ele>15.04</ele>
        <time>2016-02-04T10:20:43Z</time>
      </trkpt>
      <trkpt lat="43.44367" lon="6.61823">
        <ele>16</ele>
        <time>2016-02-04T10:20:57Z</time>
      </trkpt>
      <trkpt lat="43.44367" lon="6.61843">
        <ele>15.04</ele>
        <time>2016-02-04T10:21:07Z</time>
      </trkpt>
      <trkpt lat="43.44365" lon="6.61873">
        <ele>14.08</ele>
        <time>2016-02-04T10:21:23Z</time>
      </trkpt>
      <trkpt lat="43.44365" lon="6.61876">
        <ele>14.08</ele>
        <time>2016-02-04T10:21:25Z</time>
      </trkpt>
      <trkpt lat="43.44356" lon="6.61891">
        <ele>14.56</ele>
        <time>2016-02-04T10:21:40Z</time>
      </trkpt>
      <trkpt lat="43.44358" lon="6.61899">
        <ele>14.56</ele>
        <time>2016-02-04T10:21:43Z</time>
      </trkpt>
      <trkpt lat="43.4436" lon="6.61905">
        <ele>14.08</ele>
        <time>2016-02-04T10:21:45Z</time>
      </trkpt>
      <trkpt lat="43.44363" lon="6.61918">
        <ele>14.08</ele>
        <time>2016-02-04T10:21:55Z</time>
      </trkpt>
      <trkpt lat="43.44359" lon="6.61913">
        <ele>14.56</ele>
        <time>2016-02-04T10:22:01Z</time>
      </trkpt>
      <trkpt lat="43.44354" lon="6.6191">
        <ele>15.04</ele>
        <time>2016-02-04T10:22:05Z</time>
      </trkpt>
      <trkpt lat="43.4435" lon="6.61908">
        <ele>15.04</ele>
        <time>2016-02-04T10:22:19Z</time>
      </trkpt>
      <trkpt lat="43.4435" lon="6.61909">
        <ele>15.04</ele>
        <time>2016-02-04T10:22:34Z</time>
      </trkpt>
      <trkpt lat="43.44349" lon="6.61913">
        <ele>15.04</ele>
        <time>2016-02-04T10:22:45Z</time>
      </trkpt>
      <trkpt lat="43.44349" lon="6.61912">
        <ele>15.52</ele>
        <time>2016-02-04T10:22:58Z</time>
      </trkpt>
      <trkpt lat="43.44349" lon="6.61911">
        <ele>15.04</ele>
        <time>2016-02-04T10:23:12Z</time>
      </trkpt>
      <trkpt lat="43.4435" lon="6.61914">
        <ele>15.04</ele>
        <time>2016-02-04T10:23:25Z</time>
      </trkpt>
      <trkpt lat="43.44349" lon="6.61914">
        <ele>14.08</ele>
        <time>2016-02-04T10:23:38Z</time>
      </trkpt>
      <trkpt lat="43.44348" lon="6.61914">
        <ele>13.6</ele>
        <time>2016-02-04T10:24:00Z</time>
      </trkpt>
    </trkseg>
  </trk>
</gpx>